Time,TemperatureF,DewpointF,PressureIn,WindDirection,WindDirectionDegrees,WindSpeedMPH,WindSpeedGustMPH,Humidity,HourlyPrecipIn,Conditions,Clouds,dailyrainin,SoftwareType,DateUTC
2013-05-16 00:03:00,51.2,49.8,30.04,SW,225,2.3,2.3,95,0.00,RA,OVC,0.00,WeatherDisplay:10.37,2013-05-16 07:03:00,
2013-05-16 00:04:00,51.2,49.8,30.04,SW,225,2.3,2.3,95,0.00,RA,OVC,0.00,WeatherDisplay:10.37,2013-05-16 07:04:00,
2013-05-16 00:08:00,51.3,49.9,30.04,SW,225,0.0,0.0,95,0.00,RA,OVC,0.00,WeatherDisplay:10.37,2013-05-16 07:08:00,
2013-05-16 00:09:00,51.3,49.9,30.04,SW,225,0.0,0.0,95,0.00,CLR,OVC,0.00,WeatherDisplay:10.37,2013-05-16 07:09:00,
2013-05-16 00:13:00,51.3,49.9,30.03,SW,225,0.0,0.0,95,0.00,CLR,OVC,0.00,WeatherDisplay:10.37,2013-05-16 07:13:00,
2013-05-16 00:14:00,51.3,49.9,30.04,SW,225,0.0,0.0,95,0.00,CLR,OVC,0.00,WeatherDisplay:10.37,2013-05-16 07:14:00,
2013-05-16 00:15:00,51.3,49.9,30.04,SW,225,0.0,0.0,95,0.00,CLR,OVC,0.00,WeatherDisplay:10.37,2013-05-16 07:15:00,
2013-05-16 00:18:00,51.3,49.6,30.04,SW,225,0.0,0.0,94,0.00,CLR,OVC,0.00,WeatherDisplay:10.37,2013-05-16 07:18:00,
2013-05-16 00:19:00,51.3,49.6,30.03,SW,225,0.0,0.0,94,0.00,CLR,OVC,0.00,WeatherDisplay:10.37,2013-05-16 07:19:00,
2013-05-16 00:20:00,51.3,49.6,30.03,SW,225,0.0,0.0,94,0.00,CLR,OVC,0.00,WeatherDisplay:10.37,2013-05-16 07:20:00,
2013-05-16 00:23:00,51.3,49.6,30.03,SW,225,2.0,2.0,94,0.00,CLR,OVC,0.00,WeatherDisplay:10.37,2013-05-16 07:23:00,
2013-05-16 00:24:00,51.3,49.6,30.03,SW,225,2.3,2.3,94,0.00,CLR,OVC,0.00,WeatherDisplay:10.37,2013-05-16 07:24:00,
2013-05-16 00:25:00,51.3,49.6,30.03,SSW,205,4.0,4.0,94,0.00,CLR,OVC,0.00,WeatherDisplay:10.37,2013-05-16 07:25:00,
2013-05-16 00:29:00,51.4,49.7,30.03,SSW,201,3.5,3.5,94,0.00,CLR,OVC,0.00,WeatherDisplay:10.37,2013-05-16 07:29:00,
2013-05-16 00:31:00,51.4,49.7,30.03,South,184,3.5,3.5,94,0.00,CLR,OVC,0.00,WeatherDisplay:10.37,2013-05-16 07:31:00,
2013-05-16 00:34:00,51.4,49.7,30.03,SW,214,3.5,3.5,94,0.00,CLR,OVC,0.00,WeatherDisplay:10.37,2013-05-16 07:34:00,
2013-05-16 00:35:00,51.4,49.7,30.03,SSW,203,1.0,4.0,94,0.00,CLR,OVC,0.00,WeatherDisplay:10.37,2013-05-16 07:35:00,
2013-05-16 00:36:00,51.4,49.7,30.03,SW,214,1.1,1.1,94,0.00,CLR,OVC,0.00,WeatherDisplay:10.37,2013-05-16 07:36:00,
2013-05-16 00:39:00,51.5,49.8,30.03,SW,214,3.5,3.5,94,0.00,CLR,OVC,0.00,WeatherDisplay:10.37,2013-05-16 07:39:00,
2013-05-16 00:40:00,51.5,49.8,30.03,SSW,213,3.5,3.5,94,0.00,CLR,OVC,0.00,WeatherDisplay:10.37,2013-05-16 07:40:00,
2013-05-16 00:41:00,51.4,49.7,30.03,SW,215,2.3,2.3,94,0.00,CLR,OVC,0.00,WeatherDisplay:10.37,2013-05-16 07:41:00,
2013-05-16 00:44:00,51.4,49.7,30.04,SW,218,3.5,3.5,94,0.00,CLR,OVC,0.00,WeatherDisplay:10.37,2013-05-16 07:44:00,
2013-05-16 00:45:00,51.4,49.7,30.03,SW,218,3.5,3.5,94,0.00,CLR,OVC,0.00,WeatherDisplay:10.37,2013-05-16 07:45:00,
2013-05-16 00:46:00,51.4,49.7,30.03,SW,218,3.5,3.5,94,0.00,CLR,OVC,0.00,WeatherDisplay:10.37,2013-05-16 07:46:00,
2013-05-16 00:49:00,51.4,49.7,30.03,SW,223,3.5,3.5,94,0.00,CLR,OVC,0.00,WeatherDisplay:10.37,2013-05-16 07:49:00,
2013-05-16 00:50:00,51.4,49.7,30.04,SW,229,3.5,3.5,94,0.00,CLR,OVC,0.00,WeatherDisplay:10.37,2013-05-16 07:50:00,
2013-05-16 00:51:00,51.4,49.7,30.03,SW,229,3.5,3.5,94,0.00,CLR,OVC,0.00,WeatherDisplay:10.37,2013-05-16 07:51:00,
2013-05-16 00:52:00,51.4,49.7,30.03,SW,229,3.5,3.5,94,0.00,CLR,OVC,0.00,WeatherDisplay:10.37,2013-05-16 07:52:00,
2013-05-16 00:54:00,51.4,49.7,30.04,WSW,245,2.3,2.3,94,0.00,CLR,OVC,0.00,WeatherDisplay:10.37,2013-05-16 07:54:00,
2013-05-16 00:55:00,51.4,49.7,30.04,WSW,245,3.5,3.5,94,0.00,CLR,OVC,0.00,WeatherDisplay:10.37,2013-05-16 07:55:00,
2013-05-16 00:56:00,51.4,49.7,30.04,WSW,245,1.1,0.0,94,0.00,CLR,OVC,0.00,WeatherDisplay:10.37,2013-05-16 07:56:00,
2013-05-16 00:57:00,51.5,49.8,30.04,WSW,245,1.1,0.0,94,0.00,CLR,OVC,0.00,WeatherDisplay:10.37,2013-05-16 07:57:00,
2013-05-16 00:59:00,51.5,49.8,30.03,WSW,245,0.0,0.0,94,0.00,CLR,OVC,0.00,WeatherDisplay:10.37,2013-05-16 07:59:00,
2013-05-16 01:00:00,51.4,49.7,30.03,WSW,245,0.0,0.0,94,0.00,CLR,OVC,0.00,WeatherDisplay:10.37,2013-05-16 08:00:00,
2013-05-16 01:01:00,51.4,49.7,30.03,WSW,245,0.0,0.0,94,0.00,CLR,OVC,0.00,WeatherDisplay:10.37,2013-05-16 08:01:00,
2013-05-16 01:02:00,51.5,49.8,30.03,WSW,245,0.0,0.0,94,0.00,CLR,OVC,0.00,WeatherDisplay:10.37,2013-05-16 08:02:00,
2013-05-16 01:04:00,51.5,49.8,30.03,WSW,245,0.0,0.0,94,0.00,CLR,OVC,0.00,WeatherDisplay:10.37,2013-05-16 08:04:00,
2013-05-16 01:05:00,51.5,49.8,30.03,WSW,245,1.1,1.1,94,0.00,CLR,OVC,0.00,WeatherDisplay:10.37,2013-05-16 08:05:00,
2013-05-16 01:06:00,51.5,49.8,30.03,WSW,245,1.1,0.0,94,0.00,CLR,OVC,0.00,WeatherDisplay:10.37,2013-05-16 08:06:00,
2013-05-16 01:07:00,51.5,49.8,30.03,WSW,245,3.0,3.0,94,0.00,CLR,OVC,0.00,WeatherDisplay:10.37,2013-05-16 08:07:00,
2013-05-16 01:09:00,51.5,49.8,30.03,WSW,245,2.3,2.3,94,0.00,CLR,OVC,0.00,WeatherDisplay:10.37,2013-05-16 08:09:00,
2013-05-16 01:10:00,51.5,49.8,30.03,WSW,245,3.5,3.5,94,0.00,CLR,OVC,0.00,WeatherDisplay:10.37,2013-05-16 08:10:00,
2013-05-16 01:11:00,51.5,49.8,30.03,WSW,245,3.5,3.5,94,0.00,CLR,OVC,0.00,WeatherDisplay:10.37,2013-05-16 08:11:00,
2013-05-16 01:13:00,51.5,49.8,30.03,WSW,245,3.5,3.5,94,0.00,CLR,OVC,0.00,WeatherDisplay:10.37,2013-05-16 08:13:00,
2013-05-16 01:14:00,51.5,49.8,30.03,WSW,245,3.5,3.5,94,0.00,CLR,OVC,0.00,WeatherDisplay:10.37,2013-05-16 08:14:00,
2013-05-16 01:15:00,51.5,49.8,30.03,WSW,245,3.5,3.5,94,0.00,CLR,OVC,0.00,WeatherDisplay:10.37,2013-05-16 08:15:00,
2013-05-16 01:16:00,51.5,49.8,30.03,WSW,245,1.1,1.1,94,0.00,CLR,OVC,0.00,WeatherDisplay:10.37,2013-05-16 08:16:00,
2013-05-16 01:18:00,51.4,49.7,30.03,WSW,240,4.0,4.0,94,0.00,CLR,OVC,0.00,WeatherDisplay:10.37,2013-05-16 08:18:00,
2013-05-16 01:20:00,51.5,50.1,30.03,SW,232,4.6,4.6,95,0.00,CLR,OVC,0.00,WeatherDisplay:10.37,2013-05-16 08:20:00,
2013-05-16 01:21:00,51.4,50.0,30.03,SW,229,3.5,3.5,95,0.00,CLR,OVC,0.00,WeatherDisplay:10.37,2013-05-16 08:21:00,
2013-05-16 01:22:00,51.4,50.0,30.03,SW,230,3.5,3.5,95,0.00,CLR,OVC,0.00,WeatherDisplay:10.37,2013-05-16 08:22:00,
2013-05-16 01:24:00,51.4,50.0,30.03,SW,230,3.5,3.5,95,0.00,CLR,OVC,0.00,WeatherDisplay:10.37,2013-05-16 08:24:00,
2013-05-16 01:25:00,51.4,50.0,30.03,SW,230,3.5,3.5,95,0.00,CLR,OVC,0.00,WeatherDisplay:10.37,2013-05-16 08:25:00,
2013-05-16 01:26:00,51.4,50.3,30.03,SW,232,3.5,3.5,96,0.00,CLR,OVC,0.00,WeatherDisplay:10.37,2013-05-16 08:26:00,
2013-05-16 01:27:00,51.3,50.2,30.03,SW,232,4.0,4.0,96,0.00,CLR,OVC,0.00,WeatherDisplay:10.37,2013-05-16 08:27:00,
2013-05-16 01:29:00,51.3,50.2,30.03,SW,234,3.5,3.5,96,0.00,CLR,OVC,0.00,WeatherDisplay:10.37,2013-05-16 08:29:00,
2013-05-16 01:30:00,51.3,50.2,30.03,SW,234,3.5,3.5,96,0.00,CLR,OVC,0.00,WeatherDisplay:10.37,2013-05-16 08:30:00,
2013-05-16 01:31:00,51.3,50.2,30.03,SW,234,3.5,3.5,96,0.00,CLR,OVC,0.00,WeatherDisplay:10.37,2013-05-16 08:31:00,
2013-05-16 01:32:00,51.3,50.2,30.03,WSW,242,3.5,3.5,96,0.00,CLR,OVC,0.00,WeatherDisplay:10.37,2013-05-16 08:32:00,
2013-05-16 01:34:00,51.3,50.2,30.03,WSW,242,3.5,3.5,96,0.00,CLR,OVC,0.00,WeatherDisplay:10.37,2013-05-16 08:34:00,
2013-05-16 01:36:00,51.3,50.5,30.03,WSW,242,3.5,3.5,97,0.00,CLR,OVC,0.00,WeatherDisplay:10.37,2013-05-16 08:36:00,
2013-05-16 01:37:00,51.3,50.5,30.03,WSW,242,3.5,3.5,97,0.00,CLR,OVC,0.00,WeatherDisplay:10.37,2013-05-16 08:37:00,
2013-05-16 01:40:00,51.3,50.5,30.03,WSW,244,3.5,3.5,97,0.00,CLR,OVC,0.00,WeatherDisplay:10.37,2013-05-16 08:40:00,
2013-05-16 01:41:00,51.3,50.5,30.03,WSW,244,2.3,2.3,97,0.00,CLR,OVC,0.00,WeatherDisplay:10.37,2013-05-16 08:41:00,
2013-05-16 01:42:00,51.3,50.5,30.03,WSW,244,3.5,3.5,97,0.00,CLR,OVC,0.00,WeatherDisplay:10.37,2013-05-16 08:42:00,
2013-05-16 01:45:00,51.2,50.4,30.03,WSW,244,1.1,1.1,97,0.00,CLR,OVC,0.00,WeatherDisplay:10.37,2013-05-16 08:45:00,
2013-05-16 01:46:00,51.2,50.4,30.03,WSW,244,3.0,3.0,97,0.00,CLR,OVC,0.00,WeatherDisplay:10.37,2013-05-16 08:46:00,
2013-05-16 01:47:00,51.2,50.4,30.03,WSW,244,3.5,3.5,97,0.00,CLR,OVC,0.00,WeatherDisplay:10.37,2013-05-16 08:47:00,
2013-05-16 01:50:00,51.2,50.4,30.03,WSW,244,3.5,3.5,97,0.00,CLR,OVC,0.00,WeatherDisplay:10.37,2013-05-16 08:50:00,
2013-05-16 01:51:00,51.2,50.4,30.03,WSW,244,3.5,3.5,97,0.00,CLR,OVC,0.00,WeatherDisplay:10.37,2013-05-16 08:51:00,
2013-05-16 01:52:00,51.2,50.4,30.03,WSW,244,3.5,3.5,97,0.00,CLR,OVC,0.00,WeatherDisplay:10.37,2013-05-16 08:52:00,
2013-05-16 01:53:00,51.2,50.4,30.03,WSW,244,3.5,3.5,97,0.00,CLR,OVC,0.00,WeatherDisplay:10.37,2013-05-16 08:53:00,
2013-05-16 01:56:00,51.2,50.4,30.03,WSW,244,2.3,2.3,97,0.00,CLR,OVC,0.00,WeatherDisplay:10.37,2013-05-16 08:56:00,
2013-05-16 01:57:00,51.1,50.3,30.03,WSW,244,1.1,0.0,97,0.00,CLR,OVC,0.00,WeatherDisplay:10.37,2013-05-16 08:57:00,
2013-05-16 01:59:00,51.1,50.3,30.03,WSW,244,3.5,3.5,97,0.00,CLR,OVC,0.00,WeatherDisplay:10.37,2013-05-16 08:59:00,
2013-05-16 02:01:00,51.1,50.3,30.03,WSW,244,1.1,1.1,97,0.00,CLR,OVC,0.00,WeatherDisplay:10.37,2013-05-16 09:01:00,
2013-05-16 02:02:00,51.2,50.4,30.02,WSW,244,2.3,2.3,97,0.00,CLR,OVC,0.00,WeatherDisplay:10.37,2013-05-16 09:02:00,
2013-05-16 02:04:00,51.2,50.4,30.03,WSW,244,3.5,3.5,97,0.00,CLR,OVC,0.00,WeatherDisplay:10.37,2013-05-16 09:04:00,
2013-05-16 02:06:00,51.2,50.4,30.02,WSW,244,3.0,3.0,97,0.00,CLR,OVC,0.00,WeatherDisplay:10.37,2013-05-16 09:06:00,
2013-05-16 02:07:00,51.2,50.4,30.02,WSW,244,3.5,3.5,97,0.00,CLR,OVC,0.00,WeatherDisplay:10.37,2013-05-16 09:07:00,
2013-05-16 02:09:00,51.2,50.4,30.03,WSW,245,3.5,3.5,97,0.00,CLR,OVC,0.00,WeatherDisplay:10.37,2013-05-16 09:09:00,
2013-05-16 02:11:00,51.2,50.4,30.02,WSW,245,3.5,3.5,97,0.00,CLR,OVC,0.00,WeatherDisplay:10.37,2013-05-16 09:11:00,
2013-05-16 02:12:00,51.2,50.4,30.02,WSW,246,5.0,5.0,97,0.00,CLR,OVC,0.00,WeatherDisplay:10.37,2013-05-16 09:12:00,
2013-05-16 02:13:00,51.2,50.4,30.02,WSW,247,4.6,4.6,97,0.00,CLR,OVC,0.00,WeatherDisplay:10.37,2013-05-16 09:13:00,
2013-05-16 02:14:00,51.2,50.4,30.02,WSW,247,4.6,4.6,97,0.00,CLR,OVC,0.00,WeatherDisplay:10.37,2013-05-16 09:14:00,
2013-05-16 02:16:00,51.2,50.4,30.02,WSW,246,3.5,3.5,97,0.00,CLR,OVC,0.00,WeatherDisplay:10.37,2013-05-16 09:16:00,
2013-05-16 02:17:00,51.2,50.4,30.02,WSW,246,3.5,3.5,97,0.00,CLR,OVC,0.00,WeatherDisplay:10.37,2013-05-16 09:17:00,
2013-05-16 02:18:00,51.2,50.1,30.02,WSW,246,3.5,3.5,96,0.00,CLR,OVC,0.00,WeatherDisplay:10.37,2013-05-16 09:18:00,
2013-05-16 02:20:00,51.2,50.4,30.02,WSW,246,3.5,3.5,97,0.00,CLR,OVC,0.00,WeatherDisplay:10.37,2013-05-16 09:20:00,
2013-05-16 02:21:00,51.2,50.1,30.02,WSW,241,3.5,3.5,96,0.00,CLR,OVC,0.00,WeatherDisplay:10.37,2013-05-16 09:21:00,
2013-05-16 02:23:00,51.2,50.1,30.02,WSW,240,3.5,3.5,96,0.00,CLR,OVC,0.00,WeatherDisplay:10.37,2013-05-16 09:23:00,
2013-05-16 02:25:00,51.2,50.1,30.02,WSW,242,4.6,4.6,96,0.00,CLR,OVC,0.00,WeatherDisplay:10.37,2013-05-16 09:25:00,
2013-05-16 02:27:00,51.2,50.1,30.02,WSW,238,4.6,4.6,96,0.00,CLR,OVC,0.00,WeatherDisplay:10.37,2013-05-16 09:27:00,
2013-05-16 02:28:00,51.3,50.2,30.02,WSW,240,3.5,3.7,96,0.00,CLR,OVC,0.00,WeatherDisplay:10.37,2013-05-16 09:28:00,
2013-05-16 02:30:00,51.3,50.2,30.02,WSW,240,3.5,3.5,96,0.00,CLR,OVC,0.00,WeatherDisplay:10.37,2013-05-16 09:30:00,
2013-05-16 02:32:00,51.2,50.1,30.02,WSW,240,3.5,3.5,96,0.00,CLR,OVC,0.00,WeatherDisplay:10.37,2013-05-16 09:32:00,
2013-05-16 02:33:00,51.2,50.1,30.02,WSW,240,3.5,3.5,96,0.00,CLR,OVC,0.00,WeatherDisplay:10.37,2013-05-16 09:33:00,
2013-05-16 02:34:00,51.2,50.1,30.02,WSW,240,2.3,2.3,96,0.00,CLR,OVC,0.00,WeatherDisplay:10.37,2013-05-16 09:34:00,
2013-05-16 02:35:00,51.2,50.1,30.02,WSW,240,1.1,0.0,96,0.00,CLR,OVC,0.00,WeatherDisplay:10.37,2013-05-16 09:35:00,
2013-05-16 02:37:00,51.2,50.1,30.02,WSW,240,3.5,3.5,96,0.00,CLR,OVC,0.00,WeatherDisplay:10.37,2013-05-16 09:37:00,
2013-05-16 02:38:00,51.2,50.1,30.01,WSW,240,3.0,3.0,96,0.00,CLR,OVC,0.00,WeatherDisplay:10.37,2013-05-16 09:38:00,
2013-05-16 02:39:00,51.2,50.1,30.01,WSW,240,3.5,3.5,96,0.00,CLR,OVC,0.00,WeatherDisplay:10.37,2013-05-16 09:39:00,
2013-05-16 02:40:00,51.2,50.1,30.01,WSW,240,1.1,0.0,96,0.00,CLR,OVC,0.00,WeatherDisplay:10.37,2013-05-16 09:40:00,
2013-05-16 02:42:00,51.2,50.1,30.01,WSW,240,1.1,1.1,96,0.00,CLR,OVC,0.00,WeatherDisplay:10.37,2013-05-16 09:42:00,
2013-05-16 02:43:00,51.2,50.1,30.01,WSW,240,2.3,2.3,96,0.00,CLR,OVC,0.00,WeatherDisplay:10.37,2013-05-16 09:43:00,
2013-05-16 02:44:00,51.2,50.1,30.01,WSW,240,1.1,0.0,96,0.00,CLR,OVC,0.00,WeatherDisplay:10.37,2013-05-16 09:44:00,
2013-05-16 02:45:00,51.2,50.1,30.01,WSW,240,0.0,0.0,96,0.00,CLR,OVC,0.00,WeatherDisplay:10.37,2013-05-16 09:45:00,
2013-05-16 02:47:00,51.2,50.1,30.01,WSW,240,0.0,0.1,96,0.00,CLR,OVC,0.00,WeatherDisplay:10.37,2013-05-16 09:47:00,
2013-05-16 02:48:00,51.2,50.1,30.01,WSW,240,1.1,0.0,96,0.00,CLR,OVC,0.00,WeatherDisplay:10.37,2013-05-16 09:48:00,
2013-05-16 02:49:00,51.2,50.1,30.01,WSW,240,0.0,0.0,96,0.00,CLR,OVC,0.00,WeatherDisplay:10.37,2013-05-16 09:49:00,
2013-05-16 02:50:00,51.2,50.1,30.01,WSW,240,1.1,0.0,96,0.00,CLR,OVC,0.00,WeatherDisplay:10.37,2013-05-16 09:50:00,
2013-05-16 02:52:00,51.3,50.2,30.01,WSW,240,0.0,0.0,96,0.00,CLR,OVC,0.00,WeatherDisplay:10.37,2013-05-16 09:52:00,
2013-05-16 02:53:00,51.2,50.1,30.01,WSW,240,0.0,0.0,96,0.00,CLR,OVC,0.00,WeatherDisplay:10.37,2013-05-16 09:53:00,
2013-05-16 02:54:00,51.2,50.1,30.01,WSW,240,0.0,0.0,96,0.00,CLR,OVC,0.00,WeatherDisplay:10.37,2013-05-16 09:54:00,
2013-05-16 02:56:00,51.2,50.1,30.01,WSW,240,1.1,0.0,96,0.00,CLR,OVC,0.00,WeatherDisplay:10.37,2013-05-16 09:56:00,
2013-05-16 02:58:00,51.2,50.1,30.01,WSW,240,0.0,0.1,96,0.00,CLR,OVC,0.00,WeatherDisplay:10.37,2013-05-16 09:58:00,
2013-05-16 02:59:00,51.2,50.1,30.01,WSW,240,3.5,3.5,96,0.00,CLR,OVC,0.00,WeatherDisplay:10.37,2013-05-16 09:59:00,
2013-05-16 03:00:00,51.2,50.1,30.01,WSW,240,2.3,2.3,96,0.00,CLR,OVC,0.00,WeatherDisplay:10.37,2013-05-16 10:00:00,
2013-05-16 03:01:00,51.2,50.1,30.01,WSW,240,2.3,2.3,96,0.00,CLR,OVC,0.00,WeatherDisplay:10.37,2013-05-16 10:01:00,
2013-05-16 03:03:00,51.2,50.1,30.01,WSW,240,0.0,0.0,96,0.00,CLR,OVC,0.00,WeatherDisplay:10.37,2013-05-16 10:03:00,
2013-05-16 03:04:00,51.2,50.1,30.01,WSW,240,0.0,0.0,96,0.00,CLR,OVC,0.00,WeatherDisplay:10.37,2013-05-16 10:04:00,
2013-05-16 03:05:00,51.3,50.2,30.01,WSW,240,0.0,0.0,96,0.00,CLR,OVC,0.00,WeatherDisplay:10.37,2013-05-16 10:05:00,
2013-05-16 03:06:00,51.3,50.2,30.01,WSW,240,0.0,0.0,96,0.00,CLR,OVC,0.00,WeatherDisplay:10.37,2013-05-16 10:06:00,
2013-05-16 03:08:00,51.3,50.2,30.01,WSW,240,0.0,0.0,96,0.00,CLR,OVC,0.00,WeatherDisplay:10.37,2013-05-16 10:08:00,
2013-05-16 03:09:00,51.3,50.2,30.01,WSW,240,0.0,0.0,96,0.00,CLR,OVC,0.00,WeatherDisplay:10.37,2013-05-16 10:09:00,
2013-05-16 03:10:00,51.3,50.2,30.00,WSW,240,0.0,0.0,96,0.00,CLR,OVC,0.00,WeatherDisplay:10.37,2013-05-16 10:10:00,
2013-05-16 03:12:00,51.3,50.2,30.00,WSW,240,0.0,0.0,96,0.00,CLR,OVC,0.00,WeatherDisplay:10.37,2013-05-16 10:12:00,
2013-05-16 03:13:00,51.3,50.2,30.00,WSW,240,0.0,0.0,96,0.00,CLR,OVC,0.00,WeatherDisplay:10.37,2013-05-16 10:13:00,
2013-05-16 03:14:00,51.3,50.2,30.00,WSW,240,0.0,0.0,96,0.00,CLR,OVC,0.00,WeatherDisplay:10.37,2013-05-16 10:14:00,
2013-05-16 03:16:00,51.3,50.2,30.00,WSW,240,0.0,0.0,96,0.00,CLR,OVC,0.00,WeatherDisplay:10.37,2013-05-16 10:16:00,
2013-05-16 03:17:00,51.3,50.2,30.00,WSW,240,0.0,0.0,96,0.00,CLR,OVC,0.00,WeatherDisplay:10.37,2013-05-16 10:17:00,
2013-05-16 03:19:00,51.3,50.2,30.00,WSW,240,0.0,0.0,96,0.00,CLR,OVC,0.00,WeatherDisplay:10.37,2013-05-16 10:19:00,
2013-05-16 03:20:00,51.3,50.2,30.00,WSW,240,0.0,0.0,96,0.00,CLR,OVC,0.00,WeatherDisplay:10.37,2013-05-16 10:20:00,
2013-05-16 03:21:00,51.3,50.2,30.00,WSW,240,0.0,0.0,96,0.00,CLR,OVC,0.00,WeatherDisplay:10.37,2013-05-16 10:21:00,
2013-05-16 03:22:00,51.3,50.2,30.00,WSW,240,0.0,0.0,96,0.00,CLR,OVC,0.00,WeatherDisplay:10.37,2013-05-16 10:22:00,
2013-05-16 03:24:00,51.3,50.2,30.00,WSW,240,0.0,0.0,96,0.00,CLR,OVC,0.00,WeatherDisplay:10.37,2013-05-16 10:24:00,
2013-05-16 03:25:00,51.3,50.2,30.00,WSW,240,0.0,0.0,96,0.00,CLR,OVC,0.00,WeatherDisplay:10.37,2013-05-16 10:25:00,
2013-05-16 03:26:00,51.3,50.2,30.00,WSW,240,0.0,0.0,96,0.00,CLR,OVC,0.00,WeatherDisplay:10.37,2013-05-16 10:26:00,
2013-05-16 03:27:00,51.2,50.1,30.00,WSW,240,0.0,0.0,96,0.00,CLR,OVC,0.00,WeatherDisplay:10.37,2013-05-16 10:27:00,
2013-05-16 03:29:00,51.2,50.1,30.00,WSW,240,0.0,0.0,96,0.00,CLR,OVC,0.00,WeatherDisplay:10.37,2013-05-16 10:29:00,
2013-05-16 03:30:00,51.2,50.1,30.00,WSW,240,0.0,0.0,96,0.00,CLR,OVC,0.00,WeatherDisplay:10.37,2013-05-16 10:30:00,
2013-05-16 03:31:00,51.2,50.1,30.00,WSW,240,0.0,0.0,96,0.00,CLR,OVC,0.00,WeatherDisplay:10.37,2013-05-16 10:31:00,
2013-05-16 03:32:00,51.2,49.8,30.00,WSW,240,0.0,0.0,95,0.00,CLR,OVC,0.00,WeatherDisplay:10.37,2013-05-16 10:32:00,
2013-05-16 03:33:00,51.1,49.7,30.00,WSW,240,0.0,0.0,95,0.00,CLR,OVC,0.00,WeatherDisplay:10.37,2013-05-16 10:33:00,
2013-05-16 03:34:00,51.1,50.0,30.00,WSW,240,0.0,0.0,96,0.00,CLR,OVC,0.00,WeatherDisplay:10.37,2013-05-16 10:34:00,
2013-05-16 03:35:00,51.1,50.0,30.00,WSW,240,0.0,0.0,96,0.00,CLR,OVC,0.00,WeatherDisplay:10.37,2013-05-16 10:35:00,
2013-05-16 03:37:00,51.0,49.9,30.00,WSW,240,0.0,0.0,96,0.00,CLR,OVC,0.00,WeatherDisplay:10.37,2013-05-16 10:37:00,
2013-05-16 03:38:00,51.0,49.9,30.00,WSW,240,0.0,0.0,96,0.00,CLR,OVC,0.00,WeatherDisplay:10.37,2013-05-16 10:38:00,
2013-05-16 03:39:00,51.0,49.9,30.00,WSW,240,0.0,0.0,96,0.00,CLR,OVC,0.00,WeatherDisplay:10.37,2013-05-16 10:39:00,
2013-05-16 03:41:00,51.0,49.9,30.00,WSW,240,0.0,0.0,96,0.00,CLR,OVC,0.00,WeatherDisplay:10.37,2013-05-16 10:41:00,
2013-05-16 03:42:00,50.9,49.8,30.00,WSW,240,0.0,0.0,96,0.00,CLR,OVC,0.00,WeatherDisplay:10.37,2013-05-16 10:42:00,
2013-05-16 03:43:00,50.9,49.8,30.00,WSW,240,0.0,0.0,96,0.00,CLR,OVC,0.00,WeatherDisplay:10.37,2013-05-16 10:43:00,
2013-05-16 03:44:00,50.9,49.8,30.00,WSW,240,0.0,0.0,96,0.00,CLR,OVC,0.00,WeatherDisplay:10.37,2013-05-16 10:44:00,
2013-05-16 03:46:00,50.9,49.8,30.00,WSW,240,0.0,0.0,96,0.00,CLR,OVC,0.00,WeatherDisplay:10.37,2013-05-16 10:46:00,
2013-05-16 03:47:00,50.9,49.8,30.00,WSW,240,0.0,0.0,96,0.00,CLR,OVC,0.00,WeatherDisplay:10.37,2013-05-16 10:47:00,
2013-05-16 03:48:00,50.9,49.8,30.00,WSW,240,2.3,2.3,96,0.00,CLR,OVC,0.00,WeatherDisplay:10.37,2013-05-16 10:48:00,
2013-05-16 03:49:00,50.9,49.8,30.00,WSW,240,2.3,2.3,96,0.00,CLR,OVC,0.00,WeatherDisplay:10.37,2013-05-16 10:49:00,
2013-05-16 03:52:00,51.0,49.9,30.00,WSW,240,0.0,0.0,96,0.00,CLR,OVC,0.00,WeatherDisplay:10.37,2013-05-16 10:52:00,
2013-05-16 03:53:00,51.0,49.9,30.00,WSW,240,0.0,0.1,96,0.00,CLR,OVC,0.00,WeatherDisplay:10.37,2013-05-16 10:53:00,
2013-05-16 03:54:00,51.0,49.9,30.00,WSW,240,1.1,1.1,96,0.00,CLR,OVC,0.00,WeatherDisplay:10.37,2013-05-16 10:54:00,
2013-05-16 03:55:00,51.0,49.9,30.00,WSW,240,3.5,3.5,96,0.00,CLR,OVC,0.00,WeatherDisplay:10.37,2013-05-16 10:55:00,
2013-05-16 03:57:00,51.0,49.9,30.00,WSW,240,0.0,0.0,96,0.00,CLR,OVC,0.00,WeatherDisplay:10.37,2013-05-16 10:57:00,
2013-05-16 03:58:00,51.0,49.9,30.00,WSW,240,0.0,0.0,96,0.00,CLR,OVC,0.00,WeatherDisplay:10.37,2013-05-16 10:58:00,
2013-05-16 03:59:00,51.0,49.9,30.00,WSW,240,1.0,0.0,96,0.00,CLR,OVC,0.00,WeatherDisplay:10.37,2013-05-16 10:59:00,
2013-05-16 04:00:00,51.0,49.9,30.00,WSW,240,1.1,0.0,96,0.00,CLR,OVC,0.00,WeatherDisplay:10.37,2013-05-16 11:00:00,
2013-05-16 04:02:00,51.0,49.9,30.00,WSW,240,0.0,0.0,96,0.00,CLR,OVC,0.00,WeatherDisplay:10.37,2013-05-16 11:02:00,
2013-05-16 04:03:00,51.0,49.9,30.00,WSW,240,0.0,0.0,96,0.00,CLR,OVC,0.00,WeatherDisplay:10.37,2013-05-16 11:03:00,
2013-05-16 04:04:00,51.1,50.0,30.00,WSW,240,0.0,0.0,96,0.00,CLR,OVC,0.00,WeatherDisplay:10.37,2013-05-16 11:04:00,
2013-05-16 04:05:00,51.1,50.0,30.00,WSW,240,0.0,0.0,96,0.00,CLR,OVC,0.00,WeatherDisplay:10.37,2013-05-16 11:05:00,
2013-05-16 04:07:00,51.1,50.0,30.00,WSW,240,0.0,0.0,96,0.00,CLR,OVC,0.00,WeatherDisplay:10.37,2013-05-16 11:07:00,
2013-05-16 04:08:00,51.1,50.0,30.00,WSW,240,0.0,0.0,96,0.00,CLR,OVC,0.00,WeatherDisplay:10.37,2013-05-16 11:08:00,
2013-05-16 04:10:00,51.1,50.0,30.00,WSW,240,0.0,0.0,96,0.00,CLR,OVC,0.00,WeatherDisplay:10.37,2013-05-16 11:10:00,
2013-05-16 04:11:00,51.1,50.0,30.00,WSW,240,0.0,0.0,96,0.00,CLR,OVC,0.00,WeatherDisplay:10.37,2013-05-16 11:11:00,
2013-05-16 04:12:00,51.1,50.0,30.00,WSW,240,0.0,0.0,96,0.00,CLR,OVC,0.00,WeatherDisplay:10.37,2013-05-16 11:12:00,
2013-05-16 04:13:00,51.1,50.0,30.00,WSW,240,0.0,0.0,96,0.00,CLR,OVC,0.00,WeatherDisplay:10.37,2013-05-16 11:13:00,
2013-05-16 04:15:00,51.1,50.0,29.99,WSW,240,0.0,0.0,96,0.00,CLR,OVC,0.00,WeatherDisplay:10.37,2013-05-16 11:15:00,
2013-05-16 04:16:00,51.0,49.9,29.99,WSW,240,0.0,0.0,96,0.00,CLR,OVC,0.00,WeatherDisplay:10.37,2013-05-16 11:16:00,
2013-05-16 04:17:00,51.0,49.9,29.99,WSW,240,0.0,0.0,96,0.00,CLR,OVC,0.00,WeatherDisplay:10.37,2013-05-16 11:17:00,
2013-05-16 04:18:00,51.0,49.9,29.99,WSW,240,0.0,0.0,96,0.00,CLR,OVC,0.00,WeatherDisplay:10.37,2013-05-16 11:18:00,
2013-05-16 04:20:00,51.0,49.9,30.00,WSW,240,0.0,0.0,96,0.00,CLR,OVC,0.00,WeatherDisplay:10.37,2013-05-16 11:20:00,
2013-05-16 04:21:00,51.0,49.9,30.00,WSW,240,0.0,0.0,96,0.00,CLR,OVC,0.00,WeatherDisplay:10.37,2013-05-16 11:21:00,
2013-05-16 04:22:00,50.9,49.8,29.99,WSW,240,0.0,0.0,96,0.00,CLR,OVC,0.00,WeatherDisplay:10.37,2013-05-16 11:22:00,
2013-05-16 04:24:00,50.9,49.8,29.99,WSW,240,0.0,0.0,96,0.00,CLR,OVC,0.00,WeatherDisplay:10.37,2013-05-16 11:24:00,
2013-05-16 04:25:00,50.9,49.8,29.99,WSW,240,0.0,0.0,96,0.00,CLR,OVC,0.00,WeatherDisplay:10.37,2013-05-16 11:25:00,
2013-05-16 04:26:00,50.9,49.8,29.99,WSW,240,0.0,0.0,96,0.00,CLR,OVC,0.00,WeatherDisplay:10.37,2013-05-16 11:26:00,
2013-05-16 04:27:00,50.9,49.5,29.99,WSW,240,0.0,0.0,95,0.00,CLR,OVC,0.00,WeatherDisplay:10.37,2013-05-16 11:27:00,
2013-05-16 04:29:00,50.9,49.5,29.99,WSW,240,0.0,0.0,95,0.00,CLR,OVC,0.00,WeatherDisplay:10.37,2013-05-16 11:29:00,
2013-05-16 04:30:00,50.9,49.5,29.99,WSW,240,0.0,0.0,95,0.00,CLR,OVC,0.00,WeatherDisplay:10.37,2013-05-16 11:30:00,
2013-05-16 04:31:00,50.9,49.5,29.99,WSW,240,0.0,0.0,95,0.00,CLR,OVC,0.00,WeatherDisplay:10.37,2013-05-16 11:31:00,
2013-05-16 04:33:00,50.9,49.5,29.99,WSW,240,0.0,0.0,95,0.00,CLR,OVC,0.00,WeatherDisplay:10.37,2013-05-16 11:33:00,
2013-05-16 04:35:00,51.0,49.6,29.99,WSW,240,0.0,0.0,95,0.00,CLR,OVC,0.00,WeatherDisplay:10.37,2013-05-16 11:35:00,
2013-05-16 04:36:00,51.0,49.6,29.99,WSW,240,0.0,0.0,95,0.00,CLR,OVC,0.00,WeatherDisplay:10.37,2013-05-16 11:36:00,
2013-05-16 04:37:00,51.0,49.6,29.99,WSW,240,0.0,0.0,95,0.00,CLR,OVC,0.00,WeatherDisplay:10.37,2013-05-16 11:37:00,
2013-05-16 04:38:00,51.0,49.6,29.99,WSW,240,0.0,0.0,95,0.00,CLR,OVC,0.00,WeatherDisplay:10.37,2013-05-16 11:38:00,
2013-05-16 04:40:00,51.1,49.7,29.99,WSW,240,0.0,0.0,95,0.00,CLR,OVC,0.00,WeatherDisplay:10.37,2013-05-16 11:40:00,
2013-05-16 04:41:00,51.2,49.8,29.99,WSW,240,2.3,2.3,95,0.00,CLR,OVC,0.00,WeatherDisplay:10.37,2013-05-16 11:41:00,
2013-05-16 04:42:00,51.2,49.5,29.99,WSW,240,1.1,1.1,94,0.00,CLR,OVC,0.00,WeatherDisplay:10.37,2013-05-16 11:42:00,
2013-05-16 04:43:00,51.2,49.5,29.99,WSW,240,0.0,0.0,94,0.00,CLR,OVC,0.00,WeatherDisplay:10.37,2013-05-16 11:43:00,
2013-05-16 04:45:00,51.2,49.5,29.99,WSW,240,0.0,0.0,94,0.00,CLR,OVC,0.00,WeatherDisplay:10.37,2013-05-16 11:45:00,
2013-05-16 04:46:00,51.3,49.6,29.99,WSW,240,0.0,0.0,94,0.00,CLR,OVC,0.00,WeatherDisplay:10.37,2013-05-16 11:46:00,
2013-05-16 04:47:00,51.3,49.6,29.99,WSW,240,0.0,0.0,94,0.00,CLR,OVC,0.00,WeatherDisplay:10.37,2013-05-16 11:47:00,
2013-05-16 04:48:00,51.3,49.6,29.99,WSW,240,0.0,0.0,94,0.00,CLR,OVC,0.00,WeatherDisplay:10.37,2013-05-16 11:48:00,
2013-05-16 04:50:00,51.3,49.6,29.99,WSW,240,0.0,0.0,94,0.00,CLR,OVC,0.00,WeatherDisplay:10.37,2013-05-16 11:50:00,
2013-05-16 04:51:00,51.3,49.6,29.99,WSW,240,0.0,0.0,94,0.00,CLR,OVC,0.00,WeatherDisplay:10.37,2013-05-16 11:51:00,
2013-05-16 04:52:00,51.3,49.6,29.99,WSW,240,0.0,0.0,94,0.00,CLR,OVC,0.00,WeatherDisplay:10.37,2013-05-16 11:52:00,
2013-05-16 04:53:00,51.4,49.7,29.99,WSW,240,2.3,2.3,94,0.00,CLR,OVC,0.00,WeatherDisplay:10.37,2013-05-16 11:53:00,
2013-05-16 04:55:00,51.4,49.7,29.99,WSW,240,2.3,2.3,94,0.00,CLR,OVC,0.00,WeatherDisplay:10.37,2013-05-16 11:55:00,
2013-05-16 04:57:00,51.5,49.5,29.99,WSW,240,0.0,0.0,93,0.00,CLR,OVC,0.00,WeatherDisplay:10.37,2013-05-16 11:57:00,
2013-05-16 04:58:00,51.5,49.5,29.99,WSW,240,0.0,0.0,93,0.00,CLR,OVC,0.00,WeatherDisplay:10.37,2013-05-16 11:58:00,
2013-05-16 04:59:00,51.5,49.5,29.99,WSW,240,0.0,0.0,93,0.00,CLR,OVC,0.00,WeatherDisplay:10.37,2013-05-16 11:59:00,
2013-05-16 05:00:00,51.6,49.6,29.99,WSW,240,0.0,0.1,93,0.00,CLR,OVC,0.00,WeatherDisplay:10.37,2013-05-16 12:00:00,
2013-05-16 05:02:00,51.6,49.6,29.98,WSW,240,0.0,0.0,93,0.00,CLR,OVC,0.00,WeatherDisplay:10.37,2013-05-16 12:02:00,
2013-05-16 05:03:00,51.6,49.6,29.99,WSW,240,0.0,0.0,93,0.00,CLR,OVC,0.00,WeatherDisplay:10.37,2013-05-16 12:03:00,
2013-05-16 05:04:00,51.6,49.6,29.99,WSW,240,1.1,0.0,93,0.00,CLR,OVC,0.00,WeatherDisplay:10.37,2013-05-16 12:04:00,
2013-05-16 05:06:00,51.7,49.7,29.98,WSW,240,0.0,0.0,93,0.00,CLR,OVC,0.00,WeatherDisplay:10.37,2013-05-16 12:06:00,
2013-05-16 05:07:00,51.6,49.6,29.98,WSW,240,0.0,0.0,93,0.00,CLR,OVC,0.00,WeatherDisplay:10.37,2013-05-16 12:07:00,
2013-05-16 05:08:00,51.6,49.6,29.98,WSW,240,0.0,0.0,93,0.00,CLR,OVC,0.00,WeatherDisplay:10.37,2013-05-16 12:08:00,
2013-05-16 05:09:00,51.7,49.7,29.99,WSW,240,0.0,0.0,93,0.00,CLR,OVC,0.00,WeatherDisplay:10.37,2013-05-16 12:09:00,
2013-05-16 05:11:00,51.7,49.7,29.98,WSW,240,0.0,0.0,93,0.00,CLR,OVC,0.00,WeatherDisplay:10.37,2013-05-16 12:11:00,
2013-05-16 05:12:00,51.6,49.6,29.98,WSW,240,0.0,0.0,93,0.00,CLR,OVC,0.00,WeatherDisplay:10.37,2013-05-16 12:12:00,
2013-05-16 05:13:00,51.6,49.6,29.98,WSW,240,0.0,0.0,93,0.00,CLR,OVC,0.00,WeatherDisplay:10.37,2013-05-16 12:13:00,
2013-05-16 05:14:00,51.6,49.6,29.98,WSW,240,1.1,1.1,93,0.00,CLR,OVC,0.00,WeatherDisplay:10.37,2013-05-16 12:14:00,
2013-05-16 05:16:00,51.6,49.6,29.98,WSW,240,0.0,0.0,93,0.00,CLR,OVC,0.00,WeatherDisplay:10.37,2013-05-16 12:16:00,
2013-05-16 05:18:00,51.6,49.6,29.98,WSW,240,0.0,0.0,93,0.00,CLR,OVC,0.00,WeatherDisplay:10.37,2013-05-16 12:18:00,
2013-05-16 05:19:00,51.6,49.6,29.98,WSW,240,0.0,0.0,93,0.00,CLR,OVC,0.00,WeatherDisplay:10.37,2013-05-16 12:19:00,
2013-05-16 05:21:00,51.6,49.6,29.98,WSW,240,0.0,0.0,93,0.00,CLR,OVC,0.00,WeatherDisplay:10.37,2013-05-16 12:21:00,
2013-05-16 05:23:00,51.5,49.5,29.98,WSW,240,1.1,0.0,93,0.00,CLR,OVC,0.00,WeatherDisplay:10.37,2013-05-16 12:23:00,
2013-05-16 05:24:00,51.5,49.5,29.98,WSW,240,0.0,0.0,93,0.00,CLR,OVC,0.00,WeatherDisplay:10.37,2013-05-16 12:24:00,
2013-05-16 05:25:00,51.5,49.5,29.98,WSW,240,0.0,0.0,93,0.00,CLR,OVC,0.00,WeatherDisplay:10.37,2013-05-16 12:25:00,
2013-05-16 05:26:00,51.5,49.8,29.98,WSW,240,0.0,0.0,94,0.00,CLR,OVC,0.00,WeatherDisplay:10.37,2013-05-16 12:26:00,
2013-05-16 05:28:00,51.5,49.8,29.98,WSW,240,0.0,0.0,94,0.00,CLR,OVC,0.00,WeatherDisplay:10.37,2013-05-16 12:28:00,
2013-05-16 05:30:00,51.5,49.8,29.98,WSW,240,0.0,0.0,94,0.00,CLR,OVC,0.00,WeatherDisplay:10.37,2013-05-16 12:30:00,
2013-05-16 05:31:00,51.4,49.7,29.98,WSW,240,0.0,0.0,94,0.00,CLR,OVC,0.00,WeatherDisplay:10.37,2013-05-16 12:31:00,
2013-05-16 05:33:00,51.4,49.7,29.98,WSW,240,0.0,0.0,94,0.00,CLR,OVC,0.00,WeatherDisplay:10.37,2013-05-16 12:33:00,
2013-05-16 05:35:00,51.4,49.7,29.98,WSW,240,0.0,0.0,94,0.00,CLR,OVC,0.00,WeatherDisplay:10.37,2013-05-16 12:35:00,
2013-05-16 05:36:00,51.4,49.7,29.98,WSW,240,0.0,0.0,94,0.00,CLR,OVC,0.00,WeatherDisplay:10.37,2013-05-16 12:36:00,
2013-05-16 05:38:00,51.4,49.7,29.98,WSW,240,0.0,0.0,94,0.00,CLR,OVC,0.00,WeatherDisplay:10.37,2013-05-16 12:38:00,
2013-05-16 05:40:00,51.4,49.7,29.98,WSW,240,0.0,0.0,94,0.00,CLR,OVC,0.00,WeatherDisplay:10.37,2013-05-16 12:40:00,
2013-05-16 05:42:00,51.4,49.7,29.98,WSW,240,0.0,0.0,94,0.00,CLR,OVC,0.00,WeatherDisplay:10.37,2013-05-16 12:42:00,
2013-05-16 05:44:00,51.4,49.7,29.98,WSW,240,0.0,0.0,94,0.00,CLR,OVC,0.00,WeatherDisplay:10.37,2013-05-16 12:44:00,
2013-05-16 05:45:00,51.4,50.0,29.98,WSW,240,0.0,0.0,95,0.00,CLR,OVC,0.00,WeatherDisplay:10.37,2013-05-16 12:45:00,
2013-05-16 05:47:00,51.3,49.9,29.98,West,276,2.0,2.0,95,0.00,CLR,OVC,0.00,WeatherDisplay:10.37,2013-05-16 12:47:00,
2013-05-16 05:49:00,51.2,49.8,29.98,West,276,2.3,2.3,95,0.00,CLR,OVC,0.00,WeatherDisplay:10.37,2013-05-16 12:49:00,
2013-05-16 05:50:00,51.2,49.8,29.98,NW,317,2.3,2.3,95,0.00,CLR,OVC,0.00,WeatherDisplay:10.37,2013-05-16 12:50:00,
2013-05-16 05:52:00,51.0,49.3,29.98,NW,321,3.5,3.5,94,0.00,CLR,OVC,0.00,WeatherDisplay:10.37,2013-05-16 12:52:00,
2013-05-16 05:54:00,50.9,49.5,29.98,NW,324,2.3,2.3,95,0.00,CLR,OVC,0.00,WeatherDisplay:10.37,2013-05-16 12:54:00,
2013-05-16 05:55:00,50.9,49.5,29.98,NW,324,2.3,2.3,95,0.00,CLR,OVC,0.00,WeatherDisplay:10.37,2013-05-16 12:55:00,
2013-05-16 05:56:00,50.9,49.5,29.98,NW,324,2.3,2.3,95,0.00,CLR,OVC,0.00,WeatherDisplay:10.37,2013-05-16 12:56:00,
2013-05-16 05:58:00,50.8,49.4,29.98,NW,325,1.1,1.1,95,0.00,CLR,OVC,0.00,WeatherDisplay:10.37,2013-05-16 12:58:00,
2013-05-16 05:59:00,50.8,49.4,29.98,NW,325,2.3,0.0,95,0.00,CLR,OVC,0.00,WeatherDisplay:10.37,2013-05-16 12:59:00,
2013-05-16 06:00:00,50.8,49.4,29.98,NW,325,1.1,1.1,95,0.00,CLR,OVC,0.00,WeatherDisplay:10.37,2013-05-16 13:00:00,
2013-05-16 06:01:00,50.7,49.3,29.98,NW,325,1.1,0.0,95,0.00,CLR,OVC,0.00,WeatherDisplay:10.37,2013-05-16 13:01:00,
2013-05-16 06:03:00,50.7,49.3,29.98,NW,324,1.0,0.0,95,0.00,CLR,OVC,0.00,WeatherDisplay:10.37,2013-05-16 13:03:00,
2013-05-16 06:04:00,50.7,49.3,29.98,NW,324,1.1,1.1,95,0.00,CLR,OVC,0.00,WeatherDisplay:10.37,2013-05-16 13:04:00,
2013-05-16 06:05:00,50.7,49.3,29.98,NW,325,3.5,3.5,95,0.00,CLR,OVC,0.00,WeatherDisplay:10.37,2013-05-16 13:05:00,
2013-05-16 06:06:00,50.6,49.5,29.98,NW,324,0.0,0.3,96,0.00,CLR,OVC,0.00,WeatherDisplay:10.37,2013-05-16 13:06:00,
2013-05-16 06:08:00,50.6,49.5,29.98,NW,325,1.0,1.0,96,0.00,CLR,OVC,0.00,WeatherDisplay:10.37,2013-05-16 13:08:00,
2013-05-16 06:09:00,50.6,49.5,29.98,NW,325,2.3,2.3,96,0.00,CLR,OVC,0.00,WeatherDisplay:10.37,2013-05-16 13:09:00,
2013-05-16 06:10:00,50.6,49.5,29.98,NW,324,1.1,1.1,96,0.00,CLR,OVC,0.00,WeatherDisplay:10.37,2013-05-16 13:10:00,
2013-05-16 06:11:00,50.6,49.5,29.98,NW,325,2.3,2.3,96,0.00,CLR,OVC,0.00,WeatherDisplay:10.37,2013-05-16 13:11:00,
2013-05-16 06:13:00,50.6,49.5,29.98,NW,324,1.1,0.0,96,0.00,CLR,OVC,0.00,WeatherDisplay:10.37,2013-05-16 13:13:00,
2013-05-16 06:15:00,50.6,49.5,29.98,NW,324,1.1,1.1,96,0.00,CLR,OVC,0.00,WeatherDisplay:10.37,2013-05-16 13:15:00,
2013-05-16 06:16:00,50.6,49.5,29.98,NW,324,2.3,2.3,96,0.00,CLR,OVC,0.00,WeatherDisplay:10.37,2013-05-16 13:16:00,
2013-05-16 06:17:00,50.6,49.5,29.98,NNW,334,3.5,3.5,96,0.00,CLR,OVC,0.00,WeatherDisplay:10.37,2013-05-16 13:17:00,
2013-05-16 06:18:00,50.6,49.5,29.98,NNW,342,3.5,3.5,96,0.00,CLR,OVC,0.00,WeatherDisplay:10.37,2013-05-16 13:18:00,
2013-05-16 06:20:00,50.6,49.5,29.98,NNW,340,1.1,1.1,96,0.00,CLR,OVC,0.00,WeatherDisplay:10.37,2013-05-16 13:20:00,
2013-05-16 06:21:00,50.6,49.5,29.98,NNW,340,0.0,0.1,96,0.00,CLR,OVC,0.00,WeatherDisplay:10.37,2013-05-16 13:21:00,
2013-05-16 06:22:00,50.7,49.6,29.98,NNW,340,1.1,1.1,96,0.00,CLR,OVC,0.00,WeatherDisplay:10.37,2013-05-16 13:22:00,
2013-05-16 06:24:00,50.6,49.5,29.98,NNW,340,2.3,2.3,96,0.00,CLR,OVC,0.00,WeatherDisplay:10.37,2013-05-16 13:24:00,
2013-05-16 06:25:00,50.6,49.5,29.98,NNW,340,1.1,1.1,96,0.00,CLR,OVC,0.00,WeatherDisplay:10.37,2013-05-16 13:25:00,
2013-05-16 06:26:00,50.6,49.5,29.98,NNW,340,3.5,3.5,96,0.00,CLR,OVC,0.00,WeatherDisplay:10.37,2013-05-16 13:26:00,
2013-05-16 06:27:00,50.6,49.2,29.98,NNW,340,2.3,2.3,95,0.00,CLR,OVC,0.00,WeatherDisplay:10.37,2013-05-16 13:27:00,
2013-05-16 06:29:00,50.6,49.2,29.99,NNW,340,1.1,1.1,95,0.00,CLR,OVC,0.00,WeatherDisplay:10.37,2013-05-16 13:29:00,
2013-05-16 06:30:00,50.5,49.1,29.99,NNW,340,0.0,0.1,95,0.00,CLR,OVC,0.00,WeatherDisplay:10.37,2013-05-16 13:30:00,
2013-05-16 06:31:00,50.5,49.1,29.99,NNW,340,1.1,1.1,95,0.00,CLR,OVC,0.00,WeatherDisplay:10.37,2013-05-16 13:31:00,
2013-05-16 06:33:00,50.5,49.4,29.99,NNW,340,0.0,0.0,96,0.00,CLR,OVC,0.00,WeatherDisplay:10.37,2013-05-16 13:33:00,
2013-05-16 06:34:00,50.5,49.4,29.99,NNW,340,0.0,0.0,96,0.01,RA,OVC,0.01,WeatherDisplay:10.37,2013-05-16 13:34:00,
2013-05-16 06:36:00,50.5,49.4,29.99,NNW,340,0.0,0.0,96,0.01,RA,OVC,0.01,WeatherDisplay:10.37,2013-05-16 13:36:00,
2013-05-16 06:38:00,50.5,49.4,29.98,NNW,340,0.0,0.0,96,0.01,RA,OVC,0.01,WeatherDisplay:10.37,2013-05-16 13:38:00,
2013-05-16 06:39:00,50.5,49.4,29.99,NNW,340,0.0,0.0,96,0.01,RA,OVC,0.01,WeatherDisplay:10.37,2013-05-16 13:39:00,
2013-05-16 06:41:00,50.5,49.4,29.99,NNW,340,0.0,0.0,96,0.01,RA,OVC,0.01,WeatherDisplay:10.37,2013-05-16 13:41:00,
2013-05-16 06:42:00,50.5,49.4,29.99,NNW,340,0.0,0.0,96,0.01,RA,OVC,0.01,WeatherDisplay:10.37,2013-05-16 13:42:00,
2013-05-16 06:43:00,50.5,49.4,29.99,NNW,340,0.0,0.0,96,0.01,RA,OVC,0.01,WeatherDisplay:10.37,2013-05-16 13:43:00,
2013-05-16 06:44:00,50.5,49.4,29.99,NNW,340,1.1,0.0,96,0.01,,OVC,0.01,WeatherDisplay:10.37,2013-05-16 13:44:00,
2013-05-16 06:46:00,50.5,49.4,29.99,NNW,340,2.3,2.3,96,0.01,CLR,OVC,0.01,WeatherDisplay:10.37,2013-05-16 13:46:00,
2013-05-16 06:47:00,50.5,49.4,29.99,NNW,340,0.0,0.0,96,0.01,CLR,OVC,0.01,WeatherDisplay:10.37,2013-05-16 13:47:00,
2013-05-16 06:49:00,50.5,49.4,29.99,NNW,340,0.0,0.0,96,0.01,CLR,OVC,0.01,WeatherDisplay:10.37,2013-05-16 13:49:00,
2013-05-16 06:51:00,50.5,49.4,29.99,NNW,340,0.0,0.0,96,0.01,CLR,OVC,0.01,WeatherDisplay:10.37,2013-05-16 13:51:00,
2013-05-16 06:52:00,50.5,49.4,29.99,NNW,340,0.0,0.0,96,0.01,CLR,OVC,0.01,WeatherDisplay:10.37,2013-05-16 13:52:00,
2013-05-16 06:54:00,50.5,49.4,29.99,NNW,340,0.0,0.0,96,0.01,CLR,OVC,0.01,WeatherDisplay:10.37,2013-05-16 13:54:00,
2013-05-16 06:57:00,50.6,49.5,29.99,NNW,340,0.0,0.0,96,0.01,CLR,OVC,0.01,WeatherDisplay:10.37,2013-05-16 13:57:00,
2013-05-16 06:59:00,50.6,49.5,29.99,NNW,340,0.0,0.0,96,0.01,CLR,OVC,0.01,WeatherDisplay:10.37,2013-05-16 13:59:00,
2013-05-16 07:02:00,50.7,49.9,29.99,NNW,340,0.0,0.0,97,0.01,CLR,OVC,0.01,WeatherDisplay:10.37,2013-05-16 14:02:00,
2013-05-16 07:04:00,50.7,49.6,29.99,NNW,340,0.0,0.0,96,0.01,CLR,OVC,0.01,WeatherDisplay:10.37,2013-05-16 14:04:00,
2013-05-16 07:05:00,50.7,49.6,29.99,NNW,340,0.0,0.0,96,0.01,CLR,OVC,0.01,WeatherDisplay:10.37,2013-05-16 14:05:00,
2013-05-16 07:07:00,50.7,49.9,29.99,NNW,340,0.0,0.0,97,0.01,CLR,OVC,0.01,WeatherDisplay:10.37,2013-05-16 14:07:00,
2013-05-16 07:08:00,50.7,49.9,29.99,NNW,340,0.0,0.0,97,0.01,CLR,OVC,0.01,WeatherDisplay:10.37,2013-05-16 14:08:00,
2013-05-16 07:09:00,50.8,50.0,29.99,NNW,340,0.0,0.0,97,0.01,CLR,OVC,0.01,WeatherDisplay:10.37,2013-05-16 14:09:00,
2013-05-16 07:10:00,50.8,50.0,29.99,NNW,340,0.0,0.0,97,0.01,CLR,OVC,0.01,WeatherDisplay:10.37,2013-05-16 14:10:00,
2013-05-16 07:12:00,50.9,50.1,29.99,NNW,340,0.0,0.0,97,0.01,CLR,OVC,0.01,WeatherDisplay:10.37,2013-05-16 14:12:00,
2013-05-16 07:13:00,50.9,50.1,29.99,NNW,340,0.0,0.0,97,0.01,CLR,OVC,0.01,WeatherDisplay:10.37,2013-05-16 14:13:00,
2013-05-16 07:14:00,50.9,50.1,29.99,NNW,340,0.0,0.0,97,0.01,CLR,OVC,0.01,WeatherDisplay:10.37,2013-05-16 14:14:00,
2013-05-16 07:15:00,50.9,50.1,29.99,NNW,340,0.0,0.0,97,0.01,CLR,OVC,0.01,WeatherDisplay:10.37,2013-05-16 14:15:00,
2013-05-16 07:17:00,51.0,49.9,29.99,NNW,340,0.0,0.0,96,0.01,CLR,OVC,0.01,WeatherDisplay:10.37,2013-05-16 14:17:00,
2013-05-16 07:18:00,51.0,49.9,29.99,NNW,340,0.0,0.0,96,0.01,CLR,OVC,0.01,WeatherDisplay:10.37,2013-05-16 14:18:00,
2013-05-16 07:19:00,51.0,49.9,29.99,NNW,340,0.0,0.0,96,0.01,CLR,OVC,0.01,WeatherDisplay:10.37,2013-05-16 14:19:00,
2013-05-16 07:20:00,51.0,49.9,29.99,NNW,340,0.0,0.0,96,0.01,CLR,OVC,0.01,WeatherDisplay:10.37,2013-05-16 14:20:00,
2013-05-16 07:23:00,51.1,50.0,29.99,NNW,340,0.0,0.0,96,0.01,CLR,OVC,0.01,WeatherDisplay:10.37,2013-05-16 14:23:00,
2013-05-16 07:24:00,51.1,50.0,29.99,NNW,340,0.0,0.0,96,0.01,CLR,OVC,0.01,WeatherDisplay:10.37,2013-05-16 14:24:00,
2013-05-16 07:25:00,51.2,50.1,29.99,NNW,340,0.0,0.0,96,0.01,CLR,OVC,0.01,WeatherDisplay:10.37,2013-05-16 14:25:00,
2013-05-16 07:28:00,51.2,49.8,29.99,NNW,340,0.0,0.0,95,0.01,CLR,OVC,0.01,WeatherDisplay:10.37,2013-05-16 14:28:00,
2013-05-16 07:29:00,51.2,50.1,29.99,NNW,340,0.0,0.0,96,0.01,CLR,OVC,0.01,WeatherDisplay:10.37,2013-05-16 14:29:00,
2013-05-16 07:30:00,51.3,50.2,29.99,NNW,340,0.0,0.0,96,0.02,RA,OVC,0.02,WeatherDisplay:10.37,2013-05-16 14:30:00,
2013-05-16 07:33:00,51.3,50.2,29.99,NNW,340,0.0,0.0,96,0.02,RA,OVC,0.02,WeatherDisplay:10.37,2013-05-16 14:33:00,
2013-05-16 07:34:00,51.4,50.3,29.98,NNW,340,0.0,0.0,96,0.01,RA,OVC,0.02,WeatherDisplay:10.37,2013-05-16 14:34:00,
2013-05-16 07:35:00,51.4,50.3,29.98,NNW,340,0.0,0.0,96,0.01,RA,OVC,0.02,WeatherDisplay:10.37,2013-05-16 14:35:00,
2013-05-16 07:38:00,51.4,50.3,29.99,NNW,340,0.0,0.0,96,0.01,RA,OVC,0.02,WeatherDisplay:10.37,2013-05-16 14:38:00,
2013-05-16 07:39:00,51.5,50.4,29.98,NNW,340,0.0,0.0,96,0.00,,OVC,0.02,WeatherDisplay:10.37,2013-05-16 14:39:00,
2013-05-16 07:40:00,51.5,50.4,29.98,NNW,340,0.0,0.0,96,0.01,,OVC,0.02,WeatherDisplay:10.37,2013-05-16 14:40:00,
2013-05-16 07:43:00,51.5,50.4,29.98,NNW,340,0.0,0.0,96,0.02,RA,OVC,0.03,WeatherDisplay:10.37,2013-05-16 14:43:00,
2013-05-16 07:45:00,51.6,50.5,29.99,NNW,340,0.0,0.0,96,0.02,RA,OVC,0.03,WeatherDisplay:10.37,2013-05-16 14:45:00,
2013-05-16 07:48:00,51.6,50.5,29.99,NNW,340,0.0,0.0,96,0.02,RA,OVC,0.03,WeatherDisplay:10.37,2013-05-16 14:48:00,
2013-05-16 07:50:00,51.7,50.6,29.99,NNW,340,0.0,0.0,96,0.02,RA,OVC,0.03,WeatherDisplay:10.37,2013-05-16 14:50:00,
2013-05-16 07:51:00,51.7,50.6,29.99,NNW,340,0.0,0.0,96,0.02,RA,OVC,0.03,WeatherDisplay:10.37,2013-05-16 14:51:00,
2013-05-16 07:53:00,51.7,50.3,29.99,NNW,340,0.0,0.0,95,0.02,,OVC,0.03,WeatherDisplay:10.37,2013-05-16 14:53:00,
2013-05-16 07:55:00,51.7,50.6,29.99,NNW,340,0.0,0.0,96,0.02,CLR,OVC,0.03,WeatherDisplay:10.37,2013-05-16 14:55:00,
2013-05-16 07:56:00,51.7,50.6,29.99,NNW,340,0.0,0.0,96,0.02,CLR,OVC,0.03,WeatherDisplay:10.37,2013-05-16 14:56:00,
2013-05-16 07:58:00,51.7,50.6,29.99,NNW,340,0.0,0.0,96,0.02,CLR,OVC,0.03,WeatherDisplay:10.37,2013-05-16 14:58:00,
2013-05-16 08:00:00,51.7,50.6,29.99,NNW,340,0.0,0.0,96,0.02,CLR,OVC,0.03,WeatherDisplay:10.37,2013-05-16 15:00:00,
2013-05-16 08:01:00,51.8,50.7,29.99,NNW,340,0.0,0.0,96,0.02,CLR,OVC,0.03,WeatherDisplay:10.37,2013-05-16 15:01:00,
2013-05-16 08:04:00,51.8,50.7,29.99,NNW,340,0.0,0.0,96,0.02,CLR,OVC,0.03,WeatherDisplay:10.37,2013-05-16 15:04:00,
2013-05-16 08:05:00,51.8,50.7,29.99,NNW,340,1.0,1.0,96,0.02,CLR,OVC,0.03,WeatherDisplay:10.37,2013-05-16 15:05:00,
2013-05-16 08:06:00,51.7,50.6,29.99,NNW,340,2.3,2.3,96,0.02,CLR,OVC,0.03,WeatherDisplay:10.37,2013-05-16 15:06:00,
2013-05-16 08:09:00,51.7,50.3,29.99,NNW,340,0.0,0.0,95,0.02,CLR,OVC,0.03,WeatherDisplay:10.37,2013-05-16 15:09:00,
2013-05-16 08:10:00,51.7,50.6,29.98,NNW,340,0.0,0.0,96,0.02,CLR,OVC,0.03,WeatherDisplay:10.37,2013-05-16 15:10:00,
2013-05-16 08:11:00,51.8,50.7,29.98,NNW,340,0.0,0.0,96,0.02,CLR,OVC,0.03,WeatherDisplay:10.37,2013-05-16 15:11:00,
2013-05-16 08:12:00,51.8,50.7,29.99,NNW,340,0.0,0.0,96,0.02,CLR,OVC,0.03,WeatherDisplay:10.37,2013-05-16 15:12:00,
2013-05-16 08:15:00,51.9,51.1,29.98,NNW,340,0.0,0.0,97,0.02,CLR,OVC,0.03,WeatherDisplay:10.37,2013-05-16 15:15:00,
2013-05-16 08:16:00,52.0,51.2,29.98,NNW,340,2.0,2.0,97,0.02,CLR,OVC,0.03,WeatherDisplay:10.37,2013-05-16 15:16:00,
2013-05-16 08:17:00,52.1,51.3,29.99,NNW,340,2.3,2.3,97,0.02,CLR,OVC,0.03,WeatherDisplay:10.37,2013-05-16 15:17:00,
2013-05-16 08:20:00,52.3,51.5,29.98,NNW,340,0.0,0.0,97,0.02,CLR,OVC,0.03,WeatherDisplay:10.37,2013-05-16 15:20:00,
2013-05-16 08:21:00,52.3,51.5,29.98,NNW,340,0.0,0.6,97,0.02,CLR,OVC,0.03,WeatherDisplay:10.37,2013-05-16 15:21:00,
2013-05-16 08:22:00,52.4,51.6,29.98,NNW,340,2.3,2.3,97,0.02,CLR,OVC,0.03,WeatherDisplay:10.37,2013-05-16 15:22:00,
2013-05-16 08:25:00,52.5,51.7,29.98,NNW,340,0.0,0.0,97,0.02,CLR,OVC,0.03,WeatherDisplay:10.37,2013-05-16 15:25:00,
2013-05-16 08:26:00,52.5,51.7,29.98,NNW,340,0.0,0.0,97,0.02,CLR,OVC,0.03,WeatherDisplay:10.37,2013-05-16 15:26:00,
2013-05-16 08:27:00,52.6,51.8,29.98,NNW,340,0.0,0.0,97,0.02,CLR,OVC,0.03,WeatherDisplay:10.37,2013-05-16 15:27:00,
2013-05-16 08:28:00,52.6,51.8,29.98,NNW,340,0.0,0.0,97,0.02,CLR,OVC,0.03,WeatherDisplay:10.37,2013-05-16 15:28:00,
2013-05-16 08:30:00,52.6,51.5,29.98,NNW,340,0.0,0.0,96,0.01,CLR,OVC,0.03,WeatherDisplay:10.37,2013-05-16 15:30:00,
2013-05-16 08:31:00,52.7,51.6,29.98,NNW,340,0.0,0.0,96,0.01,CLR,OVC,0.03,WeatherDisplay:10.37,2013-05-16 15:31:00,
2013-05-16 08:33:00,52.8,51.7,29.98,NNW,340,0.0,0.0,96,0.01,CLR,OVC,0.03,WeatherDisplay:10.37,2013-05-16 15:33:00,
2013-05-16 08:35:00,52.9,51.8,29.98,NNW,340,2.3,0.0,96,0.01,CLR,OVC,0.03,WeatherDisplay:10.37,2013-05-16 15:35:00,
2013-05-16 08:36:00,52.9,51.5,29.98,NNW,340,1.1,1.1,95,0.01,CLR,OVC,0.03,WeatherDisplay:10.37,2013-05-16 15:36:00,
2013-05-16 08:38:00,52.9,51.8,29.98,NNW,340,2.3,2.3,96,0.01,CLR,OVC,0.03,WeatherDisplay:10.37,2013-05-16 15:38:00,
2013-05-16 08:39:00,53.0,51.9,29.98,NNW,340,1.1,1.1,96,0.01,CLR,OVC,0.03,WeatherDisplay:10.37,2013-05-16 15:39:00,
2013-05-16 08:40:00,52.9,52.1,29.98,NNW,340,1.1,1.1,97,0.01,CLR,OVC,0.03,WeatherDisplay:10.37,2013-05-16 15:40:00,
2013-05-16 08:42:00,52.9,52.1,29.99,East,96,1.1,1.1,97,0.01,CLR,OVC,0.03,WeatherDisplay:10.37,2013-05-16 15:42:00,
2013-05-16 08:43:00,52.9,52.1,29.98,ESE,120,1.1,0.0,97,0.00,CLR,OVC,0.03,WeatherDisplay:10.37,2013-05-16 15:43:00,
2013-05-16 08:44:00,52.8,52.0,29.98,ESE,120,0.0,0.0,97,0.00,CLR,OVC,0.03,WeatherDisplay:10.37,2013-05-16 15:44:00,
2013-05-16 08:45:00,52.8,52.0,29.98,ESE,120,1.1,0.0,97,0.00,CLR,OVC,0.03,WeatherDisplay:10.37,2013-05-16 15:45:00,
2013-05-16 08:47:00,52.8,52.0,29.98,ESE,120,0.0,0.0,97,0.00,CLR,OVC,0.03,WeatherDisplay:10.37,2013-05-16 15:47:00,
2013-05-16 08:48:00,52.8,52.0,29.98,ESE,120,0.0,0.0,97,0.00,CLR,OVC,0.03,WeatherDisplay:10.37,2013-05-16 15:48:00,
2013-05-16 08:49:00,53.0,52.5,29.98,ESE,120,0.0,0.0,98,0.00,CLR,OVC,0.03,WeatherDisplay:10.37,2013-05-16 15:49:00,
2013-05-16 08:50:00,53.0,52.2,29.98,ESE,120,0.0,0.0,97,0.00,CLR,OVC,0.03,WeatherDisplay:10.37,2013-05-16 15:50:00,
2013-05-16 08:52:00,53.0,52.2,29.98,ESE,120,1.1,0.0,97,0.00,CLR,OVC,0.03,WeatherDisplay:10.37,2013-05-16 15:52:00,
2013-05-16 08:53:00,53.0,52.2,29.98,ESE,120,0.0,0.0,97,0.00,CLR,OVC,0.03,WeatherDisplay:10.37,2013-05-16 15:53:00,
2013-05-16 08:54:00,53.0,51.9,29.98,ESE,120,0.0,0.0,96,0.00,CLR,OVC,0.03,WeatherDisplay:10.37,2013-05-16 15:54:00,
2013-05-16 08:55:00,53.0,51.6,29.98,ESE,120,0.0,0.0,95,0.00,CLR,OVC,0.03,WeatherDisplay:10.37,2013-05-16 15:55:00,
2013-05-16 08:57:00,53.1,51.4,29.98,ESE,120,0.0,0.0,94,0.00,CLR,OVC,0.03,WeatherDisplay:10.37,2013-05-16 15:57:00,
2013-05-16 08:58:00,53.2,51.8,29.98,ESE,120,1.1,0.0,95,0.00,CLR,OVC,0.03,WeatherDisplay:10.37,2013-05-16 15:58:00,
2013-05-16 09:00:00,53.2,51.8,29.98,ESE,120,0.0,0.0,95,0.00,CLR,OVC,0.03,WeatherDisplay:10.37,2013-05-16 16:00:00,
2013-05-16 09:02:00,53.3,51.6,29.98,ESE,120,2.3,2.3,94,0.00,CLR,OVC,0.03,WeatherDisplay:10.37,2013-05-16 16:02:00,
2013-05-16 09:03:00,53.3,51.3,29.98,ESE,120,1.1,0.0,93,0.00,CLR,OVC,0.03,WeatherDisplay:10.37,2013-05-16 16:03:00,
2013-05-16 09:05:00,53.4,51.4,29.98,ESE,120,0.0,0.0,93,0.00,CLR,OVC,0.03,WeatherDisplay:10.37,2013-05-16 16:05:00,
2013-05-16 09:06:00,53.4,51.1,29.98,ESE,120,0.0,0.0,92,0.00,CLR,OVC,0.03,WeatherDisplay:10.37,2013-05-16 16:06:00,
2013-05-16 09:07:00,53.4,50.8,29.98,ESE,120,0.0,0.0,91,0.00,CLR,OVC,0.03,WeatherDisplay:10.37,2013-05-16 16:07:00,
2013-05-16 09:08:00,53.4,51.1,29.98,ESE,120,0.0,0.0,92,0.00,CLR,OVC,0.03,WeatherDisplay:10.37,2013-05-16 16:08:00,
2013-05-16 09:10:00,53.6,51.9,29.98,ESE,120,1.1,1.1,94,0.00,CLR,OVC,0.03,WeatherDisplay:10.37,2013-05-16 16:10:00,
2013-05-16 09:11:00,53.7,52.0,29.98,ESE,120,1.1,0.0,94,0.00,CLR,OVC,0.03,WeatherDisplay:10.37,2013-05-16 16:11:00,
2013-05-16 09:12:00,53.8,52.4,29.98,ESE,120,0.0,0.0,95,0.00,CLR,OVC,0.03,WeatherDisplay:10.37,2013-05-16 16:12:00,
2013-05-16 09:13:00,53.9,52.5,29.98,ESE,120,0.0,0.1,95,0.00,CLR,OVC,0.03,WeatherDisplay:10.37,2013-05-16 16:13:00,
2013-05-16 09:14:00,53.9,52.2,29.98,ESE,120,1.1,0.0,94,0.00,CLR,OVC,0.03,WeatherDisplay:10.37,2013-05-16 16:14:00,
2013-05-16 09:16:00,53.9,51.9,29.98,ESE,120,0.0,0.0,93,0.00,CLR,OVC,0.03,WeatherDisplay:10.37,2013-05-16 16:16:00,
2013-05-16 09:18:00,54.1,52.4,29.98,ESE,120,0.0,0.0,94,0.00,CLR,OVC,0.03,WeatherDisplay:10.37,2013-05-16 16:18:00,
2013-05-16 09:19:00,54.1,52.4,29.98,ESE,120,2.3,2.3,94,0.00,CLR,OVC,0.03,WeatherDisplay:10.37,2013-05-16 16:19:00,
2013-05-16 09:21:00,54.2,52.5,29.98,ESE,120,0.0,0.0,94,0.00,CLR,OVC,0.03,WeatherDisplay:10.37,2013-05-16 16:21:00,
2013-05-16 09:23:00,54.2,51.6,29.98,ESE,120,0.0,0.0,91,0.00,CLR,OVC,0.03,WeatherDisplay:10.37,2013-05-16 16:23:00,
2013-05-16 09:24:00,54.2,51.3,29.98,ESE,120,0.0,0.0,90,0.00,CLR,OVC,0.03,WeatherDisplay:10.37,2013-05-16 16:24:00,
2013-05-16 09:26:00,54.3,51.7,29.98,ESE,120,1.1,1.1,91,0.00,CLR,OVC,0.03,WeatherDisplay:10.37,2013-05-16 16:26:00,
2013-05-16 09:28:00,54.4,51.5,29.98,ESE,120,1.1,0.0,90,0.00,CLR,OVC,0.03,WeatherDisplay:10.37,2013-05-16 16:28:00,
2013-05-16 09:29:00,54.4,51.8,29.98,ESE,120,2.0,2.0,91,0.00,CLR,OVC,0.03,WeatherDisplay:10.37,2013-05-16 16:29:00,
2013-05-16 09:31:00,54.5,51.6,29.98,ESE,120,0.0,0.0,90,0.00,CLR,OVC,0.03,WeatherDisplay:10.37,2013-05-16 16:31:00,
2013-05-16 09:32:00,54.5,51.6,29.98,ESE,120,0.0,0.0,90,0.00,CLR,OVC,0.03,WeatherDisplay:10.37,2013-05-16 16:32:00,
2013-05-16 09:33:00,54.6,52.3,29.97,ESE,120,0.0,0.1,92,0.00,CLR,OVC,0.03,WeatherDisplay:10.37,2013-05-16 16:33:00,
2013-05-16 09:34:00,54.7,52.4,29.97,ESE,120,1.1,1.1,92,0.00,CLR,OVC,0.03,WeatherDisplay:10.37,2013-05-16 16:34:00,
2013-05-16 09:36:00,54.9,52.6,29.97,ESE,120,2.3,0.0,92,0.00,CLR,OVC,0.03,WeatherDisplay:10.37,2013-05-16 16:36:00,
2013-05-16 09:37:00,54.9,52.6,29.97,ESE,120,0.0,0.0,92,0.00,CLR,OVC,0.03,WeatherDisplay:10.37,2013-05-16 16:37:00,
2013-05-16 09:39:00,55.0,53.0,29.97,South,175,3.5,3.5,93,0.00,CLR,OVC,0.03,WeatherDisplay:10.37,2013-05-16 16:39:00,
2013-05-16 09:41:00,54.9,52.0,29.97,South,175,1.1,1.1,90,0.00,CLR,OVC,0.03,WeatherDisplay:10.37,2013-05-16 16:41:00,
2013-05-16 09:42:00,54.9,52.0,29.97,South,175,1.1,1.1,90,0.00,CLR,OVC,0.03,WeatherDisplay:10.37,2013-05-16 16:42:00,
2013-05-16 09:44:00,54.9,52.3,29.97,South,175,2.3,0.0,91,0.00,CLR,OVC,0.03,WeatherDisplay:10.37,2013-05-16 16:44:00,
2013-05-16 09:45:00,54.9,52.3,29.97,South,175,1.1,1.1,91,0.00,CLR,OVC,0.03,WeatherDisplay:10.37,2013-05-16 16:45:00,
2013-05-16 09:46:00,54.9,52.0,29.97,South,180,4.6,4.6,90,0.00,CLR,OVC,0.03,WeatherDisplay:10.37,2013-05-16 16:46:00,
2013-05-16 09:47:00,54.8,51.3,29.98,South,180,4.6,4.6,88,0.00,CLR,OVC,0.03,WeatherDisplay:10.37,2013-05-16 16:47:00,
2013-05-16 09:49:00,54.7,50.9,29.97,South,180,2.3,2.3,87,0.00,CLR,OVC,0.03,WeatherDisplay:10.37,2013-05-16 16:49:00,
2013-05-16 09:50:00,54.7,51.5,29.97,South,180,2.3,2.3,89,0.00,CLR,OVC,0.03,WeatherDisplay:10.37,2013-05-16 16:50:00,
2013-05-16 09:52:00,54.6,51.4,29.97,South,180,3.5,3.5,89,0.00,CLR,OVC,0.03,WeatherDisplay:10.37,2013-05-16 16:52:00,
2013-05-16 09:54:00,54.5,51.6,29.98,South,180,1.1,1.1,90,0.00,CLR,OVC,0.03,WeatherDisplay:10.37,2013-05-16 16:54:00,
2013-05-16 09:56:00,54.4,51.5,29.98,South,180,1.1,0.0,90,0.00,CLR,OVC,0.03,WeatherDisplay:10.37,2013-05-16 16:56:00,
2013-05-16 09:57:00,54.4,51.8,29.98,South,180,2.3,2.3,91,0.00,CLR,OVC,0.03,WeatherDisplay:10.37,2013-05-16 16:57:00,
2013-05-16 10:00:00,54.6,52.3,29.98,South,180,2.3,2.3,92,0.00,CLR,OVC,0.03,WeatherDisplay:10.37,2013-05-16 17:00:00,
2013-05-16 10:02:00,54.9,52.6,29.97,South,180,2.3,2.3,92,0.00,CLR,OVC,0.03,WeatherDisplay:10.37,2013-05-16 17:02:00,
2013-05-16 10:03:00,55.0,53.0,29.98,South,180,2.3,2.3,93,0.00,CLR,OVC,0.03,WeatherDisplay:10.37,2013-05-16 17:03:00,
2013-05-16 10:05:00,55.3,53.0,29.97,South,180,1.1,1.1,92,0.00,CLR,OVC,0.03,WeatherDisplay:10.37,2013-05-16 17:05:00,
2013-05-16 10:07:00,55.4,52.8,29.98,South,191,3.5,3.5,91,0.00,CLR,OVC,0.03,WeatherDisplay:10.37,2013-05-16 17:07:00,
2013-05-16 10:08:00,55.4,52.8,29.98,South,191,1.1,1.1,91,0.00,CLR,OVC,0.03,WeatherDisplay:10.37,2013-05-16 17:08:00,
2013-05-16 10:10:00,55.4,52.8,29.98,South,191,2.3,2.3,91,0.00,CLR,OVC,0.03,WeatherDisplay:10.37,2013-05-16 17:10:00,
2013-05-16 10:12:00,55.3,52.7,29.98,South,191,3.5,3.5,91,0.00,CLR,OVC,0.03,WeatherDisplay:10.37,2013-05-16 17:12:00,
2013-05-16 10:13:00,55.4,52.8,29.98,South,191,3.5,3.5,91,0.00,CLR,OVC,0.03,WeatherDisplay:10.37,2013-05-16 17:13:00,
2013-05-16 10:15:00,55.5,52.9,29.98,South,191,2.3,2.3,91,0.00,CLR,OVC,0.03,WeatherDisplay:10.37,2013-05-16 17:15:00,
2013-05-16 10:18:00,55.7,53.4,29.98,South,191,3.5,3.5,92,0.00,CLR,OVC,0.03,WeatherDisplay:10.37,2013-05-16 17:18:00,
2013-05-16 10:20:00,55.7,53.1,29.98,South,191,2.3,2.3,91,0.00,CLR,OVC,0.03,WeatherDisplay:10.37,2013-05-16 17:20:00,
2013-05-16 10:23:00,55.9,53.3,29.98,SW,218,3.5,3.9,91,0.00,CLR,OVC,0.03,WeatherDisplay:10.37,2013-05-16 17:23:00,
2013-05-16 10:24:00,55.9,53.3,29.98,SW,218,6.9,6.9,91,0.00,CLR,OVC,0.03,WeatherDisplay:10.37,2013-05-16 17:24:00,
2013-05-16 10:25:00,56.1,53.2,29.97,SW,227,4.6,4.6,90,0.00,CLR,OVC,0.03,WeatherDisplay:10.37,2013-05-16 17:25:00,
2013-05-16 10:29:00,56.4,53.2,29.98,SW,218,5.0,5.0,89,0.00,CLR,OVC,0.03,WeatherDisplay:10.37,2013-05-16 17:29:00,
2013-05-16 10:30:00,56.4,53.5,29.97,SW,229,6.9,6.9,90,0.00,CLR,OVC,0.03,WeatherDisplay:10.37,2013-05-16 17:30:00,
2013-05-16 10:34:00,56.0,52.5,29.97,SSW,208,2.0,2.0,88,0.00,CLR,OVC,0.03,WeatherDisplay:10.37,2013-05-16 17:34:00,
2013-05-16 10:35:00,56.1,53.2,29.97,WSW,252,3.0,3.0,90,0.00,CLR,OVC,0.03,WeatherDisplay:10.37,2013-05-16 17:35:00,
2013-05-16 10:36:00,56.1,53.2,29.97,WSW,251,3.5,3.5,90,0.00,CLR,OVC,0.03,WeatherDisplay:10.37,2013-05-16 17:36:00,
2013-05-16 10:39:00,56.4,54.1,29.97,WSW,251,1.1,1.1,92,0.00,CLR,OVC,0.03,WeatherDisplay:10.37,2013-05-16 17:39:00,
2013-05-16 10:41:00,56.8,54.2,29.97,WSW,248,2.3,2.3,91,0.00,CLR,OVC,0.03,WeatherDisplay:10.37,2013-05-16 17:41:00,
2013-05-16 10:44:00,57.3,54.1,29.97,WSW,240,3.5,3.5,89,0.00,CLR,OVC,0.03,WeatherDisplay:10.37,2013-05-16 17:44:00,
2013-05-16 10:45:00,57.4,54.2,29.97,SW,234,3.5,3.5,89,0.00,CLR,OVC,0.03,WeatherDisplay:10.37,2013-05-16 17:45:00,
2013-05-16 10:46:00,57.6,54.4,29.97,SW,217,4.6,4.6,89,0.00,CLR,OVC,0.03,WeatherDisplay:10.37,2013-05-16 17:46:00,
2013-05-16 10:49:00,58.3,54.1,29.97,SW,221,5.0,5.0,86,0.00,CLR,OVC,0.03,WeatherDisplay:10.37,2013-05-16 17:49:00,
2013-05-16 10:50:00,58.4,54.2,29.97,SW,221,5.8,5.8,86,0.00,CLR,OVC,0.03,WeatherDisplay:10.37,2013-05-16 17:50:00,
2013-05-16 10:51:00,58.4,53.9,29.97,WSW,240,4.6,4.6,85,0.00,CLR,OVC,0.03,WeatherDisplay:10.37,2013-05-16 17:51:00,
2013-05-16 10:54:00,58.4,53.9,29.97,WSW,246,5.8,5.8,85,0.00,CLR,OVC,0.03,WeatherDisplay:10.37,2013-05-16 17:54:00,
2013-05-16 10:55:00,58.4,53.9,29.97,WSW,241,6.0,6.0,85,0.00,CLR,OVC,0.03,WeatherDisplay:10.37,2013-05-16 17:55:00,
2013-05-16 10:56:00,58.2,53.7,29.97,WSW,241,5.8,5.8,85,0.00,CLR,OVC,0.03,WeatherDisplay:10.37,2013-05-16 17:56:00,
2013-05-16 10:59:00,58.0,53.8,29.97,SW,224,5.0,8.0,86,0.00,CLR,OVC,0.03,WeatherDisplay:10.37,2013-05-16 17:59:00,
2013-05-16 11:00:00,58.0,53.5,29.97,SE,132,8.1,8.1,85,0.00,CLR,OVC,0.03,WeatherDisplay:10.37,2013-05-16 18:00:00,
2013-05-16 11:01:00,58.0,53.5,29.97,South,187,5.8,5.8,85,0.00,CLR,OVC,0.03,WeatherDisplay:10.37,2013-05-16 18:01:00,
2013-05-16 11:05:00,58.2,53.4,29.97,SSW,209,4.6,4.6,84,0.00,CLR,OVC,0.03,WeatherDisplay:10.37,2013-05-16 18:05:00,
2013-05-16 11:06:00,58.2,53.7,29.97,SW,235,3.5,3.5,85,0.00,CLR,OVC,0.03,WeatherDisplay:10.37,2013-05-16 18:06:00,
2013-05-16 11:10:00,58.3,53.2,29.97,SSW,211,8.1,8.1,83,0.00,CLR,OVC,0.03,WeatherDisplay:10.37,2013-05-16 18:10:00,
2013-05-16 11:11:00,58.2,52.7,29.97,SSW,212,9.2,9.2,82,0.00,CLR,OVC,0.03,WeatherDisplay:10.37,2013-05-16 18:11:00,
2013-05-16 11:12:00,58.2,52.7,29.97,SW,214,6.9,6.9,82,0.00,CLR,OVC,0.03,WeatherDisplay:10.37,2013-05-16 18:12:00,
2013-05-16 11:15:00,58.1,53.3,29.97,South,176,5.0,5.0,84,0.00,CLR,OVC,0.03,WeatherDisplay:10.37,2013-05-16 18:15:00,
2013-05-16 11:16:00,58.2,53.4,29.97,SW,227,6.9,6.9,84,0.00,CLR,OVC,0.03,WeatherDisplay:10.37,2013-05-16 18:16:00,
2013-05-16 11:17:00,58.2,53.4,29.97,SW,215,6.9,6.9,84,0.00,CLR,OVC,0.03,WeatherDisplay:10.37,2013-05-16 18:17:00,
2013-05-16 11:20:00,58.3,53.2,29.97,SSE,151,10.4,10.4,83,0.00,CLR,OVC,0.03,WeatherDisplay:10.37,2013-05-16 18:20:00,
2013-05-16 11:21:00,58.3,52.5,29.97,South,169,9.2,9.2,81,0.00,CLR,OVC,0.03,WeatherDisplay:10.37,2013-05-16 18:21:00,
2013-05-16 11:22:00,58.3,53.2,29.97,SSW,196,9.2,9.2,83,0.00,CLR,OVC,0.03,WeatherDisplay:10.37,2013-05-16 18:22:00,
2013-05-16 11:25:00,58.6,53.5,29.97,SW,226,7.0,7.0,83,0.00,CLR,OVC,0.03,WeatherDisplay:10.37,2013-05-16 18:25:00,
2013-05-16 11:26:00,58.6,53.5,29.97,SW,225,6.9,6.9,83,0.00,CLR,OVC,0.03,WeatherDisplay:10.37,2013-05-16 18:26:00,
2013-05-16 11:27:00,58.6,53.1,29.97,WSW,244,6.9,6.9,82,0.00,CLR,OVC,0.03,WeatherDisplay:10.37,2013-05-16 18:27:00,
2013-05-16 11:31:00,58.3,52.8,29.97,SW,220,9.2,9.2,82,0.00,CLR,OVC,0.03,WeatherDisplay:10.37,2013-05-16 18:31:00,
2013-05-16 11:32:00,58.2,52.7,29.97,SW,227,9.2,9.2,82,0.00,CLR,OVC,0.03,WeatherDisplay:10.37,2013-05-16 18:32:00,
2013-05-16 11:36:00,58.3,53.5,29.97,SW,232,8.0,8.0,84,0.00,CLR,OVC,0.03,WeatherDisplay:10.37,2013-05-16 18:36:00,
2013-05-16 11:37:00,58.3,53.5,29.97,SW,217,9.0,9.0,84,0.00,CLR,OVC,0.03,WeatherDisplay:10.37,2013-05-16 18:37:00,
2013-05-16 11:41:00,58.0,53.5,29.97,SW,221,5.8,5.8,85,0.00,CLR,OVC,0.03,WeatherDisplay:10.37,2013-05-16 18:41:00,
2013-05-16 11:42:00,58.0,53.5,29.97,SSW,202,5.8,5.8,85,0.00,CLR,OVC,0.03,WeatherDisplay:10.37,2013-05-16 18:42:00,
2013-05-16 11:46:00,58.1,53.0,29.97,South,178,11.5,11.5,83,0.00,CLR,OVC,0.03,WeatherDisplay:10.37,2013-05-16 18:46:00,
2013-05-16 11:48:00,58.0,53.2,29.97,South,189,8.1,8.1,84,0.00,CLR,OVC,0.03,WeatherDisplay:10.37,2013-05-16 18:48:00,
2013-05-16 11:51:00,57.9,52.8,29.97,SSE,165,5.8,6.4,83,0.00,CLR,OVC,0.03,WeatherDisplay:10.37,2013-05-16 18:51:00,
2013-05-16 11:52:00,57.9,52.8,29.97,SSW,192,10.4,10.4,83,0.00,CLR,OVC,0.03,WeatherDisplay:10.37,2013-05-16 18:52:00,
2013-05-16 11:53:00,57.9,53.4,29.97,SW,230,5.8,5.8,85,0.00,CLR,OVC,0.03,WeatherDisplay:10.37,2013-05-16 18:53:00,
2013-05-16 11:54:00,57.9,53.4,29.97,SW,228,5.8,5.8,85,0.00,CLR,OVC,0.03,WeatherDisplay:10.37,2013-05-16 18:54:00,
2013-05-16 11:56:00,58.0,53.2,29.97,SW,230,6.9,6.9,84,0.00,CLR,OVC,0.03,WeatherDisplay:10.37,2013-05-16 18:56:00,
2013-05-16 11:57:00,58.1,53.3,29.97,SW,230,6.9,6.9,84,0.00,CLR,OVC,0.03,WeatherDisplay:10.37,2013-05-16 18:57:00,
2013-05-16 11:59:00,58.2,53.4,29.96,SW,221,6.9,6.9,84,0.00,CLR,OVC,0.03,WeatherDisplay:10.37,2013-05-16 18:59:00,
2013-05-16 12:01:00,58.4,52.9,29.96,SW,227,5.8,5.8,82,0.00,CLR,OVC,0.03,WeatherDisplay:10.37,2013-05-16 19:01:00,
2013-05-16 12:02:00,58.4,52.6,29.96,SW,235,6.9,6.9,81,0.00,CLR,OVC,0.03,WeatherDisplay:10.37,2013-05-16 19:02:00,
2013-05-16 12:04:00,58.5,53.0,29.96,WSW,238,5.8,5.8,82,0.00,CLR,OVC,0.03,WeatherDisplay:10.37,2013-05-16 19:04:00,
2013-05-16 12:07:00,58.6,52.1,29.96,SW,229,6.9,6.9,79,0.00,CLR,OVC,0.03,WeatherDisplay:10.37,2013-05-16 19:07:00,
2013-05-16 12:08:00,58.6,52.4,29.96,SW,229,3.5,3.5,80,0.00,CLR,OVC,0.03,WeatherDisplay:10.37,2013-05-16 19:08:00,
2013-05-16 12:09:00,58.6,52.4,29.96,SW,235,6.0,6.0,80,0.00,CLR,OVC,0.03,WeatherDisplay:10.37,2013-05-16 19:09:00,
2013-05-16 12:12:00,58.6,52.4,29.96,SSW,208,5.8,5.8,80,0.00,CLR,OVC,0.03,WeatherDisplay:10.37,2013-05-16 19:12:00,
2013-05-16 12:13:00,58.6,52.8,29.96,SW,234,4.6,4.6,81,0.00,CLR,OVC,0.03,WeatherDisplay:10.37,2013-05-16 19:13:00,
2013-05-16 12:14:00,58.7,52.9,29.96,SW,233,3.5,3.5,81,0.00,CLR,OVC,0.03,WeatherDisplay:10.37,2013-05-16 19:14:00,
2013-05-16 12:18:00,59.2,53.0,29.96,SW,234,3.5,3.5,80,0.00,CLR,OVC,0.03,WeatherDisplay:10.37,2013-05-16 19:18:00,
2013-05-16 12:19:00,59.4,52.5,29.96,SSW,209,4.0,4.0,78,0.00,CLR,OVC,0.03,WeatherDisplay:10.37,2013-05-16 19:19:00,
2013-05-16 12:23:00,59.6,53.1,29.96,WSW,237,4.0,4.0,79,0.00,CLR,OVC,0.03,WeatherDisplay:10.37,2013-05-16 19:23:00,
2013-05-16 12:24:00,59.7,53.9,29.96,SW,224,5.0,7.0,81,0.00,CLR,OVC,0.03,WeatherDisplay:10.37,2013-05-16 19:24:00,
2013-05-16 12:28:00,60.6,54.7,29.96,South,178,5.0,5.0,81,0.00,CLR,OVC,0.03,WeatherDisplay:10.37,2013-05-16 19:28:00,
2013-05-16 12:29:00,60.7,54.5,29.95,SW,219,3.0,7.0,80,0.00,CLR,OVC,0.03,WeatherDisplay:10.37,2013-05-16 19:29:00,
2013-05-16 12:33:00,61.1,53.5,29.95,SW,215,9.2,9.2,76,0.00,CLR,OVC,0.03,WeatherDisplay:10.37,2013-05-16 19:33:00,
2013-05-16 12:34:00,61.0,53.7,29.95,SSW,213,5.8,5.8,77,0.00,CLR,OVC,0.03,WeatherDisplay:10.37,2013-05-16 19:34:00,
2013-05-16 12:35:00,60.8,52.8,29.95,SW,229,3.5,3.5,75,0.00,CLR,OVC,0.03,WeatherDisplay:10.37,2013-05-16 19:35:00,
2013-05-16 12:38:00,60.5,53.6,29.95,SW,236,5.8,5.8,78,0.00,CLR,OVC,0.03,WeatherDisplay:10.37,2013-05-16 19:38:00,
2013-05-16 12:39:00,60.5,53.6,29.95,WSW,245,5.8,5.8,78,0.00,CLR,OVC,0.03,WeatherDisplay:10.37,2013-05-16 19:39:00,
2013-05-16 12:40:00,60.6,54.4,29.95,SW,234,5.8,5.8,80,0.00,CLR,OVC,0.03,WeatherDisplay:10.37,2013-05-16 19:40:00,
2013-05-16 12:44:00,61.0,53.7,29.95,WSW,239,4.6,4.6,77,0.00,CLR,OVC,0.03,WeatherDisplay:10.37,2013-05-16 19:44:00,
2013-05-16 12:45:00,61.1,53.8,29.95,SW,217,5.8,5.8,77,0.00,CLR,OVC,0.03,WeatherDisplay:10.37,2013-05-16 19:45:00,
2013-05-16 12:49:00,62.0,54.3,29.95,SW,229,5.0,5.0,76,0.00,CLR,OVC,0.03,WeatherDisplay:10.37,2013-05-16 19:49:00,
2013-05-16 12:50:00,62.0,54.3,29.95,SW,227,4.6,4.6,76,0.00,CLR,OVC,0.03,WeatherDisplay:10.37,2013-05-16 19:50:00,
2013-05-16 12:54:00,62.0,52.9,29.95,SSW,210,9.2,9.2,72,0.00,CLR,OVC,0.03,WeatherDisplay:10.37,2013-05-16 19:54:00,
2013-05-16 12:55:00,61.8,53.1,29.95,SW,227,6.9,6.9,73,0.00,CLR,OVC,0.03,WeatherDisplay:10.37,2013-05-16 19:55:00,
2013-05-16 12:59:00,61.4,52.7,29.95,SW,236,6.9,6.9,73,0.00,CLR,OVC,0.03,WeatherDisplay:10.37,2013-05-16 19:59:00,
2013-05-16 13:00:00,61.4,53.0,29.95,SW,216,5.8,5.8,74,0.00,CLR,OVC,0.03,WeatherDisplay:10.37,2013-05-16 20:00:00,
2013-05-16 13:01:00,61.3,53.3,29.94,SW,223,6.0,6.0,75,0.00,CLR,OVC,0.03,WeatherDisplay:10.37,2013-05-16 20:01:00,
2013-05-16 13:04:00,61.7,52.6,29.94,WSW,243,6.9,6.9,72,0.00,CLR,OVC,0.03,WeatherDisplay:10.37,2013-05-16 20:04:00,
2013-05-16 13:05:00,61.8,52.7,29.94,South,175,7.0,7.0,72,0.00,CLR,OVC,0.03,WeatherDisplay:10.37,2013-05-16 20:05:00,
2013-05-16 13:06:00,62.1,52.2,29.94,SSW,197,6.9,6.9,70,0.00,CLR,OVC,0.03,WeatherDisplay:10.37,2013-05-16 20:06:00,
2013-05-16 13:07:00,62.2,51.9,29.94,WSW,241,5.0,5.0,69,0.00,CLR,OVC,0.03,WeatherDisplay:10.37,2013-05-16 20:07:00,
2013-05-16 13:09:00,62.2,52.3,29.94,SW,227,4.6,4.6,70,0.00,CLR,OVC,0.03,WeatherDisplay:10.37,2013-05-16 20:09:00,
2013-05-16 13:10:00,62.2,51.9,29.94,SSW,207,5.8,5.8,69,0.00,CLR,OVC,0.03,WeatherDisplay:10.37,2013-05-16 20:10:00,
2013-05-16 13:11:00,62.2,52.7,29.94,SSW,199,6.0,6.0,71,0.00,CLR,OVC,0.03,WeatherDisplay:10.37,2013-05-16 20:11:00,
2013-05-16 13:12:00,62.2,52.3,29.94,SSW,213,5.8,5.8,70,0.00,CLR,OVC,0.03,WeatherDisplay:10.37,2013-05-16 20:12:00,
2013-05-16 13:14:00,62.4,52.1,29.94,SW,223,5.8,5.8,69,0.00,CLR,OVC,0.03,WeatherDisplay:10.37,2013-05-16 20:14:00,
2013-05-16 13:15:00,62.4,52.5,29.94,SW,228,6.9,6.9,70,0.00,CLR,OVC,0.03,WeatherDisplay:10.37,2013-05-16 20:15:00,
2013-05-16 13:16:00,62.4,52.1,29.94,WSW,242,6.9,6.9,69,0.00,CLR,OVC,0.03,WeatherDisplay:10.37,2013-05-16 20:16:00,
2013-05-16 13:17:00,62.4,52.9,29.94,South,180,6.9,6.9,71,0.00,CLR,OVC,0.03,WeatherDisplay:10.37,2013-05-16 20:17:00,
2013-05-16 13:19:00,62.4,52.5,29.94,SSE,166,3.5,0.0,70,0.00,CLR,OVC,0.03,WeatherDisplay:10.37,2013-05-16 20:19:00,
2013-05-16 13:21:00,62.4,52.5,29.94,SSE,166,0.0,0.0,70,0.00,CLR,OVC,0.03,WeatherDisplay:10.37,2013-05-16 20:21:00,
2013-05-16 13:22:00,62.3,52.4,29.94,WSW,242,4.6,4.6,70,0.00,CLR,OVC,0.03,WeatherDisplay:10.37,2013-05-16 20:22:00,
2013-05-16 13:24:00,62.2,53.1,29.94,WSW,242,3.5,3.5,72,0.00,CLR,OVC,0.03,WeatherDisplay:10.37,2013-05-16 20:24:00,
2013-05-16 13:26:00,62.1,53.0,29.94,WSW,241,2.3,2.3,72,0.00,CLR,OVC,0.03,WeatherDisplay:10.37,2013-05-16 20:26:00,
2013-05-16 13:27:00,62.2,53.8,29.94,WSW,239,5.0,5.0,74,0.00,CLR,OVC,0.03,WeatherDisplay:10.37,2013-05-16 20:27:00,
2013-05-16 13:29:00,62.5,53.7,29.94,WSW,238,3.5,3.5,73,0.00,CLR,OVC,0.03,WeatherDisplay:10.37,2013-05-16 20:29:00,
2013-05-16 13:31:00,62.9,53.7,29.93,SSW,195,3.5,3.5,72,0.00,CLR,OVC,0.03,WeatherDisplay:10.37,2013-05-16 20:31:00,
2013-05-16 13:32:00,63.1,53.9,29.93,SSW,213,5.8,5.8,72,0.00,CLR,OVC,0.03,WeatherDisplay:10.37,2013-05-16 20:32:00,
2013-05-16 13:35:00,63.4,53.4,29.93,WSW,242,6.9,6.9,70,0.00,CLR,OVC,0.03,WeatherDisplay:10.37,2013-05-16 20:35:00,
2013-05-16 13:36:00,63.4,52.7,29.93,WSW,244,5.8,5.8,68,0.00,CLR,OVC,0.03,WeatherDisplay:10.37,2013-05-16 20:36:00,
2013-05-16 13:37:00,63.5,53.5,29.93,WSW,250,2.3,2.3,70,0.00,CLR,OVC,0.03,WeatherDisplay:10.37,2013-05-16 20:37:00,
2013-05-16 13:38:00,63.5,53.5,29.93,WSW,250,2.3,2.3,70,0.00,CLR,OVC,0.03,WeatherDisplay:10.37,2013-05-16 20:38:00,
2013-05-16 13:40:00,63.9,53.9,29.93,WSW,252,6.0,6.0,70,0.00,CLR,OVC,0.03,WeatherDisplay:10.37,2013-05-16 20:40:00,
2013-05-16 13:41:00,64.1,52.5,29.93,WSW,252,5.8,5.8,66,0.00,CLR,OVC,0.03,WeatherDisplay:10.37,2013-05-16 20:41:00,
2013-05-16 13:43:00,64.0,53.2,29.93,SW,224,3.5,3.5,68,0.00,CLR,OVC,0.03,WeatherDisplay:10.37,2013-05-16 20:43:00,
2013-05-16 13:45:00,64.1,52.9,29.93,SW,223,4.6,4.6,67,0.00,CLR,OVC,0.03,WeatherDisplay:10.37,2013-05-16 20:45:00,
2013-05-16 13:46:00,64.1,52.5,29.93,SSW,193,4.6,4.6,66,0.00,CLR,OVC,0.03,WeatherDisplay:10.37,2013-05-16 20:46:00,
2013-05-16 13:48:00,64.0,51.6,29.93,SSW,199,2.3,2.3,64,0.00,CLR,OVC,0.03,WeatherDisplay:10.37,2013-05-16 20:48:00,
2013-05-16 13:50:00,63.9,51.9,29.93,SSW,205,1.1,1.1,65,0.00,CLR,OVC,0.03,WeatherDisplay:10.37,2013-05-16 20:50:00,
2013-05-16 13:51:00,63.7,51.7,29.93,SSW,205,1.1,1.1,65,0.00,CLR,OVC,0.03,WeatherDisplay:10.37,2013-05-16 20:51:00,
2013-05-16 13:52:00,63.7,52.1,29.93,SSW,207,2.3,2.3,66,0.00,CLR,OVC,0.03,WeatherDisplay:10.37,2013-05-16 20:52:00,
2013-05-16 13:53:00,63.4,51.8,29.93,WSW,249,5.8,5.8,66,0.00,CLR,OVC,0.03,WeatherDisplay:10.37,2013-05-16 20:53:00,
2013-05-16 13:56:00,63.0,51.9,29.93,SSE,150,8.0,8.0,67,0.00,CLR,OVC,0.03,WeatherDisplay:10.37,2013-05-16 20:56:00,
2013-05-16 13:57:00,62.9,51.4,29.93,ESE,120,10.4,10.4,66,0.00,CLR,OVC,0.03,WeatherDisplay:10.37,2013-05-16 20:57:00,
2013-05-16 13:59:00,62.6,50.7,29.93,South,174,5.8,5.8,65,0.00,CLR,OVC,0.03,WeatherDisplay:10.37,2013-05-16 20:59:00,
2013-05-16 14:01:00,62.4,50.9,29.93,SSW,198,6.9,6.9,66,0.00,CLR,OVC,0.03,WeatherDisplay:10.37,2013-05-16 21:01:00,
2013-05-16 14:02:00,62.3,50.4,29.93,SSW,210,4.6,4.6,65,0.00,CLR,OVC,0.03,WeatherDisplay:10.37,2013-05-16 21:02:00,
2013-05-16 14:05:00,62.2,51.1,29.93,South,184,5.8,5.8,67,0.00,CLR,OVC,0.03,WeatherDisplay:10.37,2013-05-16 21:05:00,
2013-05-16 14:06:00,62.1,51.0,29.93,WSW,240,5.8,5.8,67,0.00,CLR,OVC,0.03,WeatherDisplay:10.37,2013-05-16 21:06:00,
2013-05-16 14:07:00,62.1,51.8,29.93,SW,236,4.6,4.6,69,0.00,CLR,OVC,0.03,WeatherDisplay:10.37,2013-05-16 21:07:00,
2013-05-16 14:10:00,62.1,51.8,29.93,WSW,240,5.8,5.8,69,0.00,CLR,OVC,0.03,WeatherDisplay:10.37,2013-05-16 21:10:00,
2013-05-16 14:11:00,62.2,52.3,29.93,WSW,237,4.6,4.6,70,0.00,CLR,OVC,0.03,WeatherDisplay:10.37,2013-05-16 21:11:00,
2013-05-16 14:12:00,62.2,51.5,29.93,SW,232,4.6,4.6,68,0.00,CLR,OVC,0.03,WeatherDisplay:10.37,2013-05-16 21:12:00,
2013-05-16 14:15:00,62.2,52.3,29.93,WSW,242,5.8,5.8,70,0.00,CLR,OVC,0.03,WeatherDisplay:10.37,2013-05-16 21:15:00,
2013-05-16 14:16:00,62.2,52.3,29.93,SW,222,4.6,4.6,70,0.00,CLR,OVC,0.03,WeatherDisplay:10.37,2013-05-16 21:16:00,
2013-05-16 14:17:00,62.2,51.9,29.93,SSW,213,5.8,5.8,69,0.00,CLR,OVC,0.03,WeatherDisplay:10.37,2013-05-16 21:17:00,
2013-05-16 14:20:00,62.2,51.1,29.93,South,185,6.9,6.9,67,0.00,CLR,OVC,0.03,WeatherDisplay:10.37,2013-05-16 21:20:00,
2013-05-16 14:21:00,62.1,51.4,29.93,WSW,250,6.0,6.0,68,0.00,CLR,OVC,0.03,WeatherDisplay:10.37,2013-05-16 21:21:00,
2013-05-16 14:22:00,62.1,51.4,29.93,WSW,244,6.9,6.9,68,0.00,CLR,OVC,0.03,WeatherDisplay:10.37,2013-05-16 21:22:00,
2013-05-16 14:25:00,62.0,51.7,29.93,WSW,246,9.2,9.2,69,0.00,CLR,OVC,0.03,WeatherDisplay:10.37,2013-05-16 21:25:00,
2013-05-16 14:26:00,61.7,52.2,29.93,WSW,249,11.5,11.5,71,0.00,CLR,OVC,0.03,WeatherDisplay:10.37,2013-05-16 21:26:00,
2013-05-16 14:27:00,61.6,52.1,29.93,SW,229,11.5,11.5,71,0.00,CLR,OVC,0.03,WeatherDisplay:10.37,2013-05-16 21:27:00,
2013-05-16 14:30:00,61.0,52.3,29.93,SW,232,5.0,5.0,73,0.00,CLR,OVC,0.03,WeatherDisplay:10.37,2013-05-16 21:30:00,
2013-05-16 14:31:00,60.9,52.6,29.93,SW,231,5.8,6.1,74,0.00,CLR,OVC,0.03,WeatherDisplay:10.37,2013-05-16 21:31:00,
2013-05-16 14:32:00,60.8,52.5,29.93,WSW,248,11.5,11.5,74,0.00,CLR,OVC,0.03,WeatherDisplay:10.37,2013-05-16 21:32:00,
2013-05-16 14:35:00,60.5,52.5,29.93,WSW,246,10.4,10.4,75,0.00,CLR,OVC,0.03,WeatherDisplay:10.37,2013-05-16 21:35:00,
2013-05-16 14:36:00,60.4,52.8,29.93,WSW,248,6.9,6.9,76,0.00,CLR,OVC,0.03,WeatherDisplay:10.37,2013-05-16 21:36:00,
2013-05-16 14:37:00,60.2,52.6,29.93,WSW,238,10.4,10.4,76,0.00,CLR,OVC,0.03,WeatherDisplay:10.37,2013-05-16 21:37:00,
2013-05-16 14:38:00,60.2,52.6,29.94,WSW,246,6.9,6.9,76,0.00,CLR,OVC,0.03,WeatherDisplay:10.37,2013-05-16 21:38:00,
2013-05-16 14:40:00,60.0,52.8,29.94,WSW,237,10.0,10.0,77,0.00,CLR,OVC,0.03,WeatherDisplay:10.37,2013-05-16 21:40:00,
2013-05-16 14:41:00,59.8,51.5,29.94,WSW,246,12.7,12.7,74,0.00,CLR,OVC,0.03,WeatherDisplay:10.37,2013-05-16 21:41:00,
2013-05-16 14:42:00,59.7,51.4,29.94,SW,223,12.7,12.7,74,0.00,CLR,OVC,0.03,WeatherDisplay:10.37,2013-05-16 21:42:00,
2013-05-16 14:43:00,59.7,51.8,29.94,SW,236,10.4,10.4,75,0.00,CLR,OVC,0.03,WeatherDisplay:10.37,2013-05-16 21:43:00,
2013-05-16 14:45:00,59.5,51.2,29.94,WSW,247,16.1,16.1,74,0.00,CLR,OVC,0.03,WeatherDisplay:10.37,2013-05-16 21:45:00,
2013-05-16 14:46:00,59.4,51.1,29.94,WSW,242,11.5,11.5,74,0.00,CLR,OVC,0.03,WeatherDisplay:10.37,2013-05-16 21:46:00,
2013-05-16 14:47:00,59.4,51.1,29.94,WSW,252,11.5,11.5,74,0.00,CLR,OVC,0.03,WeatherDisplay:10.37,2013-05-16 21:47:00,
2013-05-16 14:49:00,59.3,51.4,29.94,WSW,256,13.0,13.0,75,0.00,CLR,OVC,0.03,WeatherDisplay:10.37,2013-05-16 21:49:00,
2013-05-16 14:50:00,59.2,51.6,29.94,SSW,211,12.7,12.7,76,0.00,CLR,OVC,0.03,WeatherDisplay:10.37,2013-05-16 21:50:00,
2013-05-16 14:52:00,59.2,52.0,29.94,WSW,243,6.9,6.9,77,0.00,CLR,OVC,0.03,WeatherDisplay:10.37,2013-05-16 21:52:00,
2013-05-16 14:54:00,59.2,51.3,29.94,West,259,11.5,11.5,75,0.00,CLR,OVC,0.03,WeatherDisplay:10.37,2013-05-16 21:54:00,
2013-05-16 14:55:00,59.2,52.0,29.94,WSW,243,9.2,9.2,77,0.00,CLR,OVC,0.03,WeatherDisplay:10.37,2013-05-16 21:55:00,
2013-05-16 14:57:00,59.2,52.7,29.94,WSW,247,7.0,7.0,79,0.00,CLR,OVC,0.03,WeatherDisplay:10.37,2013-05-16 21:57:00,
2013-05-16 14:59:00,59.3,52.4,29.94,WSW,251,4.6,4.6,78,0.00,CLR,OVC,0.03,WeatherDisplay:10.37,2013-05-16 21:59:00,
2013-05-16 15:01:00,59.3,52.8,29.94,WSW,244,9.0,9.0,79,0.00,CLR,OVC,0.03,WeatherDisplay:10.37,2013-05-16 22:01:00,
2013-05-16 15:02:00,59.3,52.1,29.94,WSW,237,10.4,10.4,77,0.00,CLR,OVC,0.03,WeatherDisplay:10.37,2013-05-16 22:02:00,
2013-05-16 15:04:00,59.4,52.9,29.94,WSW,256,6.0,6.0,79,0.00,CLR,OVC,0.03,WeatherDisplay:10.37,2013-05-16 22:04:00,
2013-05-16 15:06:00,59.4,52.5,29.94,WSW,248,9.2,9.2,78,0.00,CLR,OVC,0.03,WeatherDisplay:10.37,2013-05-16 22:06:00,
2013-05-16 15:07:00,59.4,52.9,29.94,WSW,246,4.6,4.6,79,0.00,CLR,OVC,0.03,WeatherDisplay:10.37,2013-05-16 22:07:00,
2013-05-16 15:08:00,59.5,53.3,29.94,WSW,246,4.6,4.6,80,0.00,CLR,OVC,0.03,WeatherDisplay:10.37,2013-05-16 22:08:00,
2013-05-16 15:09:00,59.5,53.3,29.94,WSW,246,3.5,3.5,80,0.00,CLR,OVC,0.03,WeatherDisplay:10.37,2013-05-16 22:09:00,
2013-05-16 15:11:00,59.7,53.5,29.94,WSW,246,3.5,3.5,80,0.00,CLR,OVC,0.03,WeatherDisplay:10.37,2013-05-16 22:11:00,
2013-05-16 15:12:00,59.9,54.1,29.94,SW,236,4.6,4.6,81,0.00,CLR,OVC,0.03,WeatherDisplay:10.37,2013-05-16 22:12:00,
2013-05-16 15:13:00,59.9,54.1,29.94,SW,236,4.6,4.6,81,0.00,CLR,OVC,0.03,WeatherDisplay:10.37,2013-05-16 22:13:00,
2013-05-16 15:14:00,60.0,54.5,29.94,SW,236,3.5,3.5,82,0.00,CLR,OVC,0.03,WeatherDisplay:10.37,2013-05-16 22:14:00,
2013-05-16 15:16:00,60.3,54.8,29.94,WSW,240,4.0,4.0,82,0.00,CLR,OVC,0.03,WeatherDisplay:10.37,2013-05-16 22:16:00,
2013-05-16 15:18:00,60.4,54.9,29.94,WSW,237,3.5,3.5,82,0.00,CLR,OVC,0.03,WeatherDisplay:10.37,2013-05-16 22:18:00,
2013-05-16 15:19:00,60.5,55.0,29.94,WSW,248,7.0,7.0,82,0.00,CLR,OVC,0.03,WeatherDisplay:10.37,2013-05-16 22:19:00,
2013-05-16 15:22:00,60.5,53.6,29.94,WSW,250,3.5,3.5,78,0.00,CLR,OVC,0.03,WeatherDisplay:10.37,2013-05-16 22:22:00,
2013-05-16 15:23:00,60.5,53.3,29.94,WSW,249,3.5,3.5,77,0.00,CLR,OVC,0.03,WeatherDisplay:10.37,2013-05-16 22:23:00,
2013-05-16 15:24:00,60.4,53.2,29.94,WSW,249,3.5,3.5,77,0.00,CLR,OVC,0.03,WeatherDisplay:10.37,2013-05-16 22:24:00,
2013-05-16 15:27:00,60.3,53.1,29.93,WSW,252,3.5,0.0,77,0.00,CLR,OVC,0.03,WeatherDisplay:10.37,2013-05-16 22:27:00,
2013-05-16 15:28:00,60.2,53.0,29.93,WSW,251,1.1,1.4,77,0.00,CLR,OVC,0.03,WeatherDisplay:10.37,2013-05-16 22:28:00,
2013-05-16 15:29:00,60.2,53.0,29.94,WSW,251,4.6,4.6,77,0.00,CLR,OVC,0.03,WeatherDisplay:10.37,2013-05-16 22:29:00,
2013-05-16 15:32:00,60.0,52.8,29.94,WSW,254,2.3,2.3,77,0.00,CLR,OVC,0.03,WeatherDisplay:10.37,2013-05-16 22:32:00,
2013-05-16 15:33:00,60.0,53.1,29.94,WSW,246,2.3,2.3,78,0.00,CLR,OVC,0.03,WeatherDisplay:10.37,2013-05-16 22:33:00,
2013-05-16 15:34:00,60.0,52.8,29.94,WSW,247,6.9,6.9,77,0.00,CLR,OVC,0.03,WeatherDisplay:10.37,2013-05-16 22:34:00,
2013-05-16 15:36:00,60.0,53.1,29.94,WSW,251,4.6,4.6,78,0.00,CLR,OVC,0.03,WeatherDisplay:10.37,2013-05-16 22:36:00,
2013-05-16 15:37:00,59.9,52.3,29.94,WSW,251,2.3,2.3,76,0.00,CLR,OVC,0.03,WeatherDisplay:10.37,2013-05-16 22:37:00,
2013-05-16 15:38:00,59.9,52.7,29.94,WSW,251,2.3,2.3,77,0.00,CLR,OVC,0.03,WeatherDisplay:10.37,2013-05-16 22:38:00,
2013-05-16 15:39:00,59.9,52.7,29.94,SW,232,4.0,4.0,77,0.00,CLR,OVC,0.03,WeatherDisplay:10.37,2013-05-16 22:39:00,
2013-05-16 15:40:00,59.9,52.7,29.94,WSW,257,5.0,5.0,77,0.00,CLR,OVC,0.03,WeatherDisplay:10.37,2013-05-16 22:40:00,
2013-05-16 15:41:00,59.8,52.9,29.94,WSW,250,4.6,4.6,78,0.00,CLR,OVC,0.03,WeatherDisplay:10.37,2013-05-16 22:41:00,
2013-05-16 15:43:00,59.8,53.3,29.94,WSW,245,5.8,5.8,79,0.00,CLR,OVC,0.03,WeatherDisplay:10.37,2013-05-16 22:43:00,
2013-05-16 15:44:00,59.8,53.3,29.94,WSW,245,3.0,3.0,79,0.00,CLR,OVC,0.03,WeatherDisplay:10.37,2013-05-16 22:44:00,
2013-05-16 15:45:00,59.9,53.4,29.94,WSW,245,3.5,3.5,79,0.00,CLR,OVC,0.03,WeatherDisplay:10.37,2013-05-16 22:45:00,
2013-05-16 15:46:00,59.9,53.0,29.94,WSW,245,3.5,3.5,78,0.00,CLR,OVC,0.03,WeatherDisplay:10.37,2013-05-16 22:46:00,
2013-05-16 15:48:00,59.9,53.4,29.94,WSW,245,5.8,5.8,79,0.00,CLR,OVC,0.03,WeatherDisplay:10.37,2013-05-16 22:48:00,
2013-05-16 15:49:00,59.9,53.7,29.94,WSW,245,2.3,2.3,80,0.00,CLR,OVC,0.03,WeatherDisplay:10.37,2013-05-16 22:49:00,
2013-05-16 15:50:00,59.9,54.1,29.94,WSW,245,2.3,2.3,81,0.00,CLR,OVC,0.03,WeatherDisplay:10.37,2013-05-16 22:50:00,
2013-05-16 15:51:00,59.9,53.4,29.94,WSW,254,4.6,4.6,79,0.00,CLR,OVC,0.03,WeatherDisplay:10.37,2013-05-16 22:51:00,
2013-05-16 15:53:00,59.9,53.7,29.94,West,260,4.6,4.6,80,0.00,CLR,OVC,0.03,WeatherDisplay:10.37,2013-05-16 22:53:00,
2013-05-16 15:54:00,59.7,53.5,29.94,SW,236,3.5,3.5,80,0.00,CLR,OVC,0.03,WeatherDisplay:10.37,2013-05-16 22:54:00,
2013-05-16 15:55:00,59.7,53.5,29.94,WSW,237,4.0,4.0,80,0.00,CLR,OVC,0.03,WeatherDisplay:10.37,2013-05-16 22:55:00,
2013-05-16 15:56:00,59.6,53.4,29.94,WSW,252,4.6,4.6,80,0.00,CLR,OVC,0.03,WeatherDisplay:10.37,2013-05-16 22:56:00,
2013-05-16 15:58:00,59.6,53.8,29.94,WSW,252,2.3,2.3,81,0.00,CLR,OVC,0.03,WeatherDisplay:10.37,2013-05-16 22:58:00,
2013-05-16 15:59:00,59.7,53.9,29.94,WSW,252,3.5,3.5,81,0.00,CLR,OVC,0.03,WeatherDisplay:10.37,2013-05-16 22:59:00,
2013-05-16 16:00:00,59.7,53.9,29.94,WSW,252,3.5,3.5,81,0.00,CLR,OVC,0.03,WeatherDisplay:10.37,2013-05-16 23:00:00,
2013-05-16 16:01:00,59.8,53.6,29.93,WSW,252,3.5,3.5,80,0.00,CLR,OVC,0.03,WeatherDisplay:10.37,2013-05-16 23:01:00,
2013-05-16 16:04:00,60.0,53.8,29.93,WSW,253,6.9,6.9,80,0.00,CLR,OVC,0.03,WeatherDisplay:10.37,2013-05-16 23:04:00,
2013-05-16 16:05:00,60.1,53.9,29.93,WSW,253,3.0,3.0,80,0.00,CLR,OVC,0.03,WeatherDisplay:10.37,2013-05-16 23:05:00,
2013-05-16 16:06:00,60.1,53.9,29.94,West,264,6.0,6.0,80,0.00,CLR,OVC,0.03,WeatherDisplay:10.37,2013-05-16 23:06:00,
2013-05-16 16:09:00,59.9,53.7,29.93,WSW,247,5.8,5.8,80,0.00,CLR,OVC,0.03,WeatherDisplay:10.37,2013-05-16 23:09:00,
2013-05-16 16:10:00,59.9,54.1,29.94,WSW,253,3.5,3.5,81,0.00,CLR,OVC,0.03,WeatherDisplay:10.37,2013-05-16 23:10:00,
2013-05-16 16:11:00,60.0,54.2,29.93,WSW,253,3.5,3.5,81,0.00,CLR,OVC,0.03,WeatherDisplay:10.37,2013-05-16 23:11:00,
2013-05-16 16:12:00,60.0,53.8,29.93,WSW,254,3.5,3.5,80,0.00,CLR,OVC,0.03,WeatherDisplay:10.37,2013-05-16 23:12:00,
2013-05-16 16:14:00,60.1,54.2,29.94,WSW,254,1.1,1.1,81,0.00,CLR,OVC,0.03,WeatherDisplay:10.37,2013-05-16 23:14:00,
2013-05-16 16:15:00,60.1,54.6,29.94,WSW,253,2.3,2.3,82,0.00,CLR,OVC,0.03,WeatherDisplay:10.37,2013-05-16 23:15:00,
2013-05-16 16:16:00,60.2,54.7,29.94,North,350,4.6,4.6,82,0.00,CLR,OVC,0.03,WeatherDisplay:10.37,2013-05-16 23:16:00,
2013-05-16 16:17:00,60.2,54.7,29.94,NW,321,3.0,3.0,82,0.00,CLR,OVC,0.03,WeatherDisplay:10.37,2013-05-16 23:17:00,
2013-05-16 16:19:00,60.2,54.0,29.94,WSW,252,4.6,4.6,80,0.00,CLR,OVC,0.03,WeatherDisplay:10.37,2013-05-16 23:19:00,
2013-05-16 16:20:00,60.2,54.7,29.94,WSW,252,4.0,4.0,82,0.00,CLR,OVC,0.03,WeatherDisplay:10.37,2013-05-16 23:20:00,
2013-05-16 16:21:00,60.1,54.6,29.93,SW,235,3.5,3.5,82,0.00,CLR,OVC,0.03,WeatherDisplay:10.37,2013-05-16 23:21:00,
2013-05-16 16:22:00,60.2,54.7,29.94,SW,235,3.5,3.5,82,0.00,CLR,OVC,0.03,WeatherDisplay:10.37,2013-05-16 23:22:00,
2013-05-16 16:24:00,60.2,54.7,29.94,West,259,0.0,4.0,82,0.00,CLR,OVC,0.03,WeatherDisplay:10.37,2013-05-16 23:24:00,
2013-05-16 16:25:00,60.2,54.0,29.93,SW,235,2.3,2.3,80,0.00,CLR,OVC,0.03,WeatherDisplay:10.37,2013-05-16 23:25:00,
2013-05-16 16:26:00,60.3,54.1,29.93,WNW,295,2.3,0.0,80,0.00,CLR,OVC,0.03,WeatherDisplay:10.37,2013-05-16 23:26:00,
2013-05-16 16:27:00,60.3,54.1,29.93,WNW,295,2.3,2.3,80,0.00,CLR,OVC,0.03,WeatherDisplay:10.37,2013-05-16 23:27:00,
2013-05-16 16:29:00,60.3,54.1,29.93,West,279,3.5,3.5,80,0.00,CLR,OVC,0.03,WeatherDisplay:10.37,2013-05-16 23:29:00,
2013-05-16 16:31:00,60.3,54.1,29.93,WSW,257,1.1,0.0,80,0.00,CLR,OVC,0.03,WeatherDisplay:10.37,2013-05-16 23:31:00,
2013-05-16 16:32:00,60.2,54.0,29.93,WSW,248,4.6,4.6,80,0.00,CLR,OVC,0.03,WeatherDisplay:10.37,2013-05-16 23:32:00,
2013-05-16 16:33:00,60.2,54.0,29.93,WSW,242,3.5,3.5,80,0.00,CLR,OVC,0.03,WeatherDisplay:10.37,2013-05-16 23:33:00,
2013-05-16 16:34:00,60.1,53.6,29.93,WSW,243,3.5,3.5,79,0.00,CLR,OVC,0.03,WeatherDisplay:10.37,2013-05-16 23:34:00,
2013-05-16 16:36:00,60.1,53.9,29.93,West,268,3.5,3.5,80,0.00,CLR,OVC,0.03,WeatherDisplay:10.37,2013-05-16 23:36:00,
2013-05-16 16:37:00,60.0,53.5,29.93,West,259,4.0,4.0,79,0.00,CLR,OVC,0.03,WeatherDisplay:10.37,2013-05-16 23:37:00,
2013-05-16 16:38:00,59.9,53.7,29.93,WSW,252,8.1,8.1,80,0.00,CLR,OVC,0.03,WeatherDisplay:10.37,2013-05-16 23:38:00,
2013-05-16 16:40:00,59.8,53.6,29.94,West,275,9.2,9.2,80,0.00,CLR,OVC,0.03,WeatherDisplay:10.37,2013-05-16 23:40:00,
2013-05-16 16:41:00,59.8,54.0,29.94,West,264,3.5,3.5,81,0.00,CLR,OVC,0.03,WeatherDisplay:10.37,2013-05-16 23:41:00,
2013-05-16 16:42:00,59.7,53.9,29.94,West,262,3.5,3.5,81,0.00,CLR,OVC,0.03,WeatherDisplay:10.37,2013-05-16 23:42:00,
2013-05-16 16:44:00,59.6,53.8,29.94,WSW,252,3.5,3.5,81,0.00,CLR,OVC,0.03,WeatherDisplay:10.37,2013-05-16 23:44:00,
2013-05-16 16:45:00,59.5,54.0,29.94,WSW,249,4.6,4.6,82,0.00,CLR,OVC,0.03,WeatherDisplay:10.37,2013-05-16 23:45:00,
2013-05-16 16:46:00,59.4,53.9,29.93,WSW,249,3.5,3.5,82,0.00,CLR,OVC,0.03,WeatherDisplay:10.37,2013-05-16 23:46:00,
2013-05-16 16:47:00,59.4,53.9,29.93,WNW,288,3.5,3.5,82,0.00,CLR,OVC,0.03,WeatherDisplay:10.37,2013-05-16 23:47:00,
2013-05-16 16:49:00,59.3,54.1,29.93,WSW,250,4.6,4.6,83,0.00,CLR,OVC,0.03,WeatherDisplay:10.37,2013-05-16 23:49:00,
2013-05-16 16:50:00,59.2,53.7,29.93,West,259,3.5,3.5,82,0.00,CLR,OVC,0.03,WeatherDisplay:10.37,2013-05-16 23:50:00,
2013-05-16 16:51:00,59.2,54.0,29.93,West,259,3.5,3.5,83,0.00,CLR,OVC,0.03,WeatherDisplay:10.37,2013-05-16 23:51:00,
2013-05-16 16:52:00,59.1,53.3,29.94,West,266,2.3,2.3,81,0.00,CLR,OVC,0.03,WeatherDisplay:10.37,2013-05-16 23:52:00,
2013-05-16 16:54:00,59.0,53.5,29.94,West,267,3.5,3.5,82,0.00,CLR,OVC,0.03,WeatherDisplay:10.37,2013-05-16 23:54:00,
2013-05-16 16:56:00,59.0,53.5,29.94,West,267,3.5,3.5,82,0.00,CLR,OVC,0.03,WeatherDisplay:10.37,2013-05-16 23:56:00,
2013-05-16 16:57:00,59.0,53.5,29.94,West,271,3.5,3.5,82,0.00,CLR,OVC,0.03,WeatherDisplay:10.37,2013-05-16 23:57:00,
2013-05-16 16:59:00,58.9,53.7,29.94,West,269,1.1,1.1,83,0.00,CLR,OVC,0.03,WeatherDisplay:10.37,2013-05-16 23:59:00,
2013-05-16 17:01:00,58.9,53.7,29.94,West,269,1.0,1.0,83,0.00,CLR,OVC,0.03,WeatherDisplay:10.37,2013-05-17 00:01:00,
2013-05-16 17:02:00,58.9,53.7,29.94,West,263,5.8,5.8,83,0.00,CLR,OVC,0.03,WeatherDisplay:10.37,2013-05-17 00:02:00,
2013-05-16 17:03:00,58.8,54.0,29.94,West,263,4.6,4.6,84,0.00,CLR,OVC,0.03,WeatherDisplay:10.37,2013-05-17 00:03:00,
2013-05-16 17:05:00,58.7,53.9,29.94,West,260,1.1,1.1,84,0.00,CLR,OVC,0.03,WeatherDisplay:10.37,2013-05-17 00:05:00,
2013-05-16 17:06:00,58.7,54.2,29.94,West,260,1.1,1.1,85,0.00,CLR,OVC,0.03,WeatherDisplay:10.37,2013-05-17 00:06:00,
2013-05-16 17:07:00,58.6,54.1,29.94,West,260,3.0,3.0,85,0.00,CLR,OVC,0.03,WeatherDisplay:10.37,2013-05-17 00:07:00,
2013-05-16 17:08:00,58.6,53.8,29.94,West,260,3.5,3.5,84,0.00,CLR,OVC,0.03,WeatherDisplay:10.37,2013-05-17 00:08:00,
2013-05-16 17:10:00,58.5,54.0,29.94,WSW,254,3.5,3.5,85,0.00,CLR,OVC,0.03,WeatherDisplay:10.37,2013-05-17 00:10:00,
2013-05-16 17:11:00,58.5,54.0,29.94,WSW,251,4.0,4.0,85,0.00,CLR,OVC,0.03,WeatherDisplay:10.37,2013-05-17 00:11:00,
2013-05-16 17:12:00,58.5,54.0,29.94,WSW,254,3.5,3.5,85,0.00,CLR,OVC,0.03,WeatherDisplay:10.37,2013-05-17 00:12:00,
2013-05-16 17:13:00,58.4,53.9,29.94,WSW,255,3.5,3.5,85,0.00,CLR,OVC,0.03,WeatherDisplay:10.37,2013-05-17 00:13:00,
2013-05-16 17:15:00,58.3,53.8,29.94,WSW,252,3.5,3.5,85,0.00,CLR,OVC,0.03,WeatherDisplay:10.37,2013-05-17 00:15:00,
2013-05-16 17:16:00,58.2,54.0,29.94,West,261,4.6,4.6,86,0.00,CLR,OVC,0.03,WeatherDisplay:10.37,2013-05-17 00:16:00,
2013-05-16 17:18:00,58.2,54.0,29.94,WSW,255,3.5,3.5,86,0.00,CLR,OVC,0.03,WeatherDisplay:10.37,2013-05-17 00:18:00,
2013-05-16 17:20:00,58.0,53.8,29.94,West,261,3.5,3.5,86,0.00,CLR,OVC,0.03,WeatherDisplay:10.37,2013-05-17 00:20:00,
2013-05-16 17:22:00,57.9,53.7,29.94,West,259,3.5,3.5,86,0.00,CLR,OVC,0.03,WeatherDisplay:10.37,2013-05-17 00:22:00,
2013-05-16 17:23:00,57.8,53.3,29.94,West,271,3.5,3.5,85,0.00,CLR,OVC,0.03,WeatherDisplay:10.37,2013-05-17 00:23:00,
2013-05-16 17:24:00,57.8,53.6,29.94,West,265,2.3,2.3,86,0.00,CLR,OVC,0.03,WeatherDisplay:10.37,2013-05-17 00:24:00,
2013-05-16 17:25:00,57.7,53.5,29.94,West,265,3.5,3.5,86,0.00,CLR,OVC,0.03,WeatherDisplay:10.37,2013-05-17 00:25:00,
2013-05-16 17:27:00,57.7,53.5,29.94,WSW,249,3.5,3.5,86,0.00,CLR,OVC,0.03,WeatherDisplay:10.37,2013-05-17 00:27:00,
2013-05-16 17:28:00,57.6,53.8,29.94,WSW,246,4.6,4.6,87,0.00,CLR,OVC,0.03,WeatherDisplay:10.37,2013-05-17 00:28:00,
2013-05-16 17:29:00,57.5,53.7,29.94,WSW,240,4.0,4.0,87,0.00,CLR,OVC,0.03,WeatherDisplay:10.37,2013-05-17 00:29:00,
2013-05-16 17:30:00,57.5,54.0,29.94,West,263,3.5,3.5,88,0.00,CLR,OVC,0.03,WeatherDisplay:10.37,2013-05-17 00:30:00,
2013-05-16 17:32:00,57.4,53.9,29.94,West,262,3.5,3.5,88,0.00,CLR,OVC,0.03,WeatherDisplay:10.37,2013-05-17 00:32:00,
2013-05-16 17:33:00,57.3,53.8,29.95,West,262,3.5,3.5,88,0.00,CLR,OVC,0.03,WeatherDisplay:10.37,2013-05-17 00:33:00,
2013-05-16 17:34:00,57.3,53.8,29.95,West,261,3.5,3.5,88,0.00,CLR,OVC,0.03,WeatherDisplay:10.37,2013-05-17 00:34:00,
2013-05-16 17:35:00,57.2,53.7,29.95,WSW,257,3.5,3.5,88,0.00,CLR,OVC,0.03,WeatherDisplay:10.37,2013-05-17 00:35:00,
2013-05-16 17:36:00,57.2,54.0,29.94,WSW,255,1.1,1.1,89,0.00,CLR,OVC,0.03,WeatherDisplay:10.37,2013-05-17 00:36:00,
2013-05-16 17:37:00,57.1,53.9,29.94,WSW,254,1.1,1.1,89,0.00,CLR,OVC,0.03,WeatherDisplay:10.37,2013-05-17 00:37:00,
2013-05-16 17:38:00,57.0,53.8,29.94,WSW,254,2.3,2.3,89,0.00,CLR,OVC,0.03,WeatherDisplay:10.37,2013-05-17 00:38:00,
2013-05-16 17:39:00,57.0,54.1,29.94,WSW,254,2.3,2.3,90,0.00,CLR,OVC,0.03,WeatherDisplay:10.37,2013-05-17 00:39:00,
2013-05-16 17:40:00,56.9,54.0,29.94,WSW,246,3.5,3.5,90,0.00,CLR,OVC,0.03,WeatherDisplay:10.37,2013-05-17 00:40:00,
2013-05-16 17:41:00,56.8,53.9,29.94,WSW,247,3.5,3.5,90,0.00,CLR,OVC,0.03,WeatherDisplay:10.37,2013-05-17 00:41:00,
2013-05-16 17:42:00,56.7,54.1,29.94,WSW,247,1.1,0.0,91,0.00,CLR,OVC,0.03,WeatherDisplay:10.37,2013-05-17 00:42:00,
2013-05-16 17:44:00,56.7,54.1,29.94,WSW,247,2.3,2.3,91,0.00,CLR,OVC,0.03,WeatherDisplay:10.37,2013-05-17 00:44:00,
2013-05-16 17:45:00,56.6,54.0,29.94,WSW,247,1.1,1.1,91,0.00,CLR,OVC,0.03,WeatherDisplay:10.37,2013-05-17 00:45:00,
2013-05-16 17:46:00,56.5,53.9,29.94,WSW,247,3.5,3.5,91,0.01,RA,OVC,0.04,WeatherDisplay:10.37,2013-05-17 00:46:00,
2013-05-16 17:48:00,56.5,53.9,29.95,WSW,247,2.3,2.3,91,0.01,RA,OVC,0.04,WeatherDisplay:10.37,2013-05-17 00:48:00,
2013-05-16 17:49:00,56.4,53.8,29.95,WSW,247,2.3,2.3,91,0.01,RA,OVC,0.04,WeatherDisplay:10.37,2013-05-17 00:49:00,
2013-05-16 17:51:00,56.3,53.7,29.95,West,280,2.3,2.3,91,0.01,RA,OVC,0.04,WeatherDisplay:10.37,2013-05-17 00:51:00,
2013-05-16 17:53:00,56.2,53.9,29.95,West,259,3.5,0.0,92,0.01,RA,OVC,0.04,WeatherDisplay:10.37,2013-05-17 00:53:00,
2013-05-16 17:54:00,56.2,53.9,29.95,West,259,2.3,2.3,92,0.01,RA,OVC,0.04,WeatherDisplay:10.37,2013-05-17 00:54:00,
2013-05-16 17:56:00,56.0,53.7,29.95,West,261,2.3,2.3,92,0.01,RA,OVC,0.04,WeatherDisplay:10.37,2013-05-17 00:56:00,
2013-05-16 17:58:00,56.0,53.7,29.95,West,261,1.1,1.1,92,0.01,,OVC,0.04,WeatherDisplay:10.37,2013-05-17 00:58:00,
2013-05-16 17:59:00,55.9,53.6,29.94,West,261,2.3,2.3,92,0.01,CLR,OVC,0.04,WeatherDisplay:10.37,2013-05-17 00:59:00,
2013-05-16 18:01:00,55.8,53.5,29.94,West,261,1.1,0.0,92,0.01,CLR,OVC,0.04,WeatherDisplay:10.37,2013-05-17 01:01:00,
2013-05-16 18:03:00,55.7,53.7,29.95,West,261,1.1,1.1,93,0.01,CLR,OVC,0.04,WeatherDisplay:10.37,2013-05-17 01:03:00,
2013-05-16 18:04:00,55.7,53.7,29.95,West,261,1.1,0.0,93,0.01,CLR,OVC,0.04,WeatherDisplay:10.37,2013-05-17 01:04:00,
2013-05-16 18:06:00,55.7,53.7,29.94,West,266,0.0,0.0,93,0.01,CLR,OVC,0.04,WeatherDisplay:10.37,2013-05-17 01:06:00,
2013-05-16 18:07:00,55.6,53.6,29.94,West,266,1.1,1.1,93,0.01,CLR,OVC,0.04,WeatherDisplay:10.37,2013-05-17 01:07:00,
2013-05-16 18:08:00,55.6,53.6,29.94,West,266,1.1,0.0,93,0.01,CLR,OVC,0.04,WeatherDisplay:10.37,2013-05-17 01:08:00,
2013-05-16 18:09:00,55.6,53.6,29.94,West,263,0.0,1.0,93,0.00,CLR,OVC,0.04,WeatherDisplay:10.37,2013-05-17 01:09:00,
2013-05-16 18:10:00,55.5,53.5,29.94,West,266,0.0,0.0,93,0.01,CLR,OVC,0.04,WeatherDisplay:10.37,2013-05-17 01:10:00,
2013-05-16 18:11:00,55.4,53.4,29.94,West,266,0.0,0.0,93,0.01,CLR,OVC,0.04,WeatherDisplay:10.37,2013-05-17 01:11:00,
2013-05-16 18:13:00,55.3,53.3,29.94,West,266,0.0,0.0,93,0.01,CLR,OVC,0.04,WeatherDisplay:10.37,2013-05-17 01:13:00,
2013-05-16 18:14:00,55.2,53.2,29.95,West,267,1.1,0.0,93,0.01,CLR,OVC,0.04,WeatherDisplay:10.37,2013-05-17 01:14:00,
2013-05-16 18:15:00,55.2,53.2,29.95,West,267,1.1,1.1,93,0.01,CLR,OVC,0.04,WeatherDisplay:10.37,2013-05-17 01:15:00,
2013-05-16 18:17:00,55.2,53.2,29.95,West,267,0.0,0.0,93,0.01,CLR,OVC,0.04,WeatherDisplay:10.37,2013-05-17 01:17:00,
2013-05-16 18:18:00,55.1,53.1,29.95,West,267,0.0,0.0,93,0.01,CLR,OVC,0.04,WeatherDisplay:10.37,2013-05-17 01:18:00,
2013-05-16 18:20:00,55.0,53.0,29.95,West,267,0.0,0.0,93,0.01,CLR,OVC,0.04,WeatherDisplay:10.37,2013-05-17 01:20:00,
2013-05-16 18:22:00,55.0,53.0,29.95,West,267,0.0,0.0,93,0.01,CLR,OVC,0.04,WeatherDisplay:10.37,2013-05-17 01:22:00,
2013-05-16 18:23:00,55.0,53.0,29.95,West,267,0.0,0.0,93,0.01,CLR,OVC,0.04,WeatherDisplay:10.37,2013-05-17 01:23:00,
2013-05-16 18:24:00,55.0,53.3,29.95,West,267,0.0,0.0,94,0.01,CLR,OVC,0.04,WeatherDisplay:10.37,2013-05-17 01:24:00,
2013-05-16 18:25:00,54.9,53.2,29.95,West,267,0.0,0.0,94,0.01,CLR,OVC,0.04,WeatherDisplay:10.37,2013-05-17 01:25:00,
2013-05-16 18:27:00,54.9,53.2,29.95,West,267,0.0,0.1,94,0.01,CLR,OVC,0.04,WeatherDisplay:10.37,2013-05-17 01:27:00,
2013-05-16 18:28:00,54.9,53.2,29.94,West,267,1.1,0.0,94,0.01,CLR,OVC,0.04,WeatherDisplay:10.37,2013-05-17 01:28:00,
2013-05-16 18:29:00,54.8,52.8,29.94,West,267,0.0,0.0,93,0.01,CLR,OVC,0.04,WeatherDisplay:10.37,2013-05-17 01:29:00,
2013-05-16 18:30:00,54.8,52.8,29.95,West,267,0.0,0.0,93,0.01,CLR,OVC,0.04,WeatherDisplay:10.37,2013-05-17 01:30:00,
2013-05-16 18:32:00,54.8,53.1,29.95,West,267,1.1,1.1,94,0.01,CLR,OVC,0.04,WeatherDisplay:10.37,2013-05-17 01:32:00,
2013-05-16 18:33:00,54.7,52.7,29.95,West,267,1.1,0.0,93,0.01,CLR,OVC,0.04,WeatherDisplay:10.37,2013-05-17 01:33:00,
2013-05-16 18:34:00,54.7,53.0,29.95,West,267,0.0,0.0,94,0.01,CLR,OVC,0.04,WeatherDisplay:10.37,2013-05-17 01:34:00,
2013-05-16 18:35:00,54.6,52.9,29.95,West,265,0.0,0.4,94,0.01,CLR,OVC,0.04,WeatherDisplay:10.37,2013-05-17 01:35:00,
2013-05-16 18:38:00,54.5,52.5,29.95,West,265,0.0,0.0,93,0.01,CLR,OVC,0.04,WeatherDisplay:10.37,2013-05-17 01:38:00,
2013-05-16 18:39:00,54.5,52.5,29.95,West,263,1.1,0.0,93,0.01,CLR,OVC,0.04,WeatherDisplay:10.37,2013-05-17 01:39:00,
2013-05-16 18:40:00,54.5,52.5,29.95,West,264,0.0,0.1,93,0.01,CLR,OVC,0.04,WeatherDisplay:10.37,2013-05-17 01:40:00,
2013-05-16 18:43:00,54.3,52.3,29.95,West,263,0.0,0.0,93,0.01,CLR,OVC,0.04,WeatherDisplay:10.37,2013-05-17 01:43:00,
2013-05-16 18:44:00,54.2,52.2,29.95,West,263,0.0,0.2,93,0.01,CLR,OVC,0.04,WeatherDisplay:10.37,2013-05-17 01:44:00,
2013-05-16 18:45:00,54.2,52.2,29.95,West,263,0.0,0.0,93,0.01,CLR,OVC,0.04,WeatherDisplay:10.37,2013-05-17 01:45:00,
2013-05-16 18:48:00,54.0,52.0,29.95,West,263,1.1,0.0,93,0.00,CLR,OVC,0.04,WeatherDisplay:10.37,2013-05-17 01:48:00,
2013-05-16 18:49:00,54.0,52.0,29.95,West,263,0.0,0.0,93,0.00,CLR,OVC,0.04,WeatherDisplay:10.37,2013-05-17 01:49:00,
2013-05-16 18:51:00,53.9,51.9,29.95,West,263,0.0,0.0,93,0.00,CLR,OVC,0.04,WeatherDisplay:10.37,2013-05-17 01:51:00,
2013-05-16 18:53:00,53.8,51.8,29.95,West,263,2.3,0.0,93,0.00,CLR,OVC,0.04,WeatherDisplay:10.37,2013-05-17 01:53:00,
2013-05-16 18:54:00,53.8,51.8,29.95,West,263,1.1,0.0,93,0.00,CLR,OVC,0.04,WeatherDisplay:10.37,2013-05-17 01:54:00,
2013-05-16 18:55:00,53.7,51.7,29.95,West,264,0.0,0.0,93,0.00,CLR,OVC,0.04,WeatherDisplay:10.37,2013-05-17 01:55:00,
2013-05-16 18:56:00,53.7,51.7,29.95,West,264,0.0,0.0,93,0.00,CLR,OVC,0.04,WeatherDisplay:10.37,2013-05-17 01:56:00,
2013-05-16 18:58:00,53.6,51.6,29.95,West,264,1.0,0.0,93,0.00,CLR,OVC,0.04,WeatherDisplay:10.37,2013-05-17 01:58:00,
2013-05-16 18:59:00,53.5,51.5,29.95,West,264,0.0,0.1,93,0.00,CLR,OVC,0.04,WeatherDisplay:10.37,2013-05-17 01:59:00,
2013-05-16 19:00:00,53.5,51.5,29.95,West,264,2.3,2.3,93,0.00,CLR,OVC,0.04,WeatherDisplay:10.37,2013-05-17 02:00:00,
2013-05-16 19:01:00,53.5,51.5,29.95,West,264,2.3,2.3,93,0.00,CLR,OVC,0.04,WeatherDisplay:10.37,2013-05-17 02:01:00,
2013-05-16 19:02:00,53.4,51.4,29.95,West,264,2.3,2.3,93,0.00,CLR,OVC,0.04,WeatherDisplay:10.37,2013-05-17 02:02:00,
2013-05-16 19:04:00,53.4,51.4,29.95,NNW,346,1.1,0.0,93,0.00,CLR,OVC,0.04,WeatherDisplay:10.37,2013-05-17 02:04:00,
2013-05-16 19:05:00,53.3,51.3,29.95,West,274,1.1,0.0,93,0.00,CLR,OVC,0.04,WeatherDisplay:10.37,2013-05-17 02:05:00,
2013-05-16 19:06:00,53.3,51.3,29.95,West,274,1.1,0.0,93,0.00,CLR,OVC,0.04,WeatherDisplay:10.37,2013-05-17 02:06:00,
2013-05-16 19:07:00,53.3,51.3,29.95,West,274,1.1,1.1,93,0.00,CLR,OVC,0.04,WeatherDisplay:10.37,2013-05-17 02:07:00,
2013-05-16 19:09:00,53.2,51.2,29.95,West,274,1.1,1.1,93,0.00,CLR,OVC,0.04,WeatherDisplay:10.37,2013-05-17 02:09:00,
2013-05-16 19:11:00,53.2,51.2,29.95,West,273,1.1,0.0,93,0.00,CLR,OVC,0.04,WeatherDisplay:10.37,2013-05-17 02:11:00,
2013-05-16 19:12:00,53.1,50.8,29.95,West,273,0.0,0.0,92,0.00,CLR,OVC,0.04,WeatherDisplay:10.37,2013-05-17 02:12:00,
2013-05-16 19:14:00,53.0,51.0,29.95,West,261,1.1,0.0,93,0.00,CLR,OVC,0.04,WeatherDisplay:10.37,2013-05-17 02:14:00,
2013-05-16 19:15:00,53.0,51.0,29.95,West,260,0.0,0.0,93,0.00,CLR,OVC,0.04,WeatherDisplay:10.37,2013-05-17 02:15:00,
2013-05-16 19:16:00,53.0,51.0,29.95,West,260,0.0,0.1,93,0.00,CLR,OVC,0.04,WeatherDisplay:10.37,2013-05-17 02:16:00,
2013-05-16 19:17:00,53.0,51.0,29.96,West,260,1.1,0.0,93,0.00,CLR,OVC,0.04,WeatherDisplay:10.37,2013-05-17 02:17:00,
2013-05-16 19:19:00,52.9,50.9,29.96,West,260,0.0,0.0,93,0.00,CLR,OVC,0.04,WeatherDisplay:10.37,2013-05-17 02:19:00,
2013-05-16 19:20:00,52.9,50.9,29.96,West,260,0.0,0.0,93,0.00,CLR,OVC,0.04,WeatherDisplay:10.37,2013-05-17 02:20:00,
2013-05-16 19:21:00,52.9,50.9,29.96,West,260,0.0,0.0,93,0.00,CLR,OVC,0.04,WeatherDisplay:10.37,2013-05-17 02:21:00,
2013-05-16 19:22:00,52.8,50.8,29.96,West,260,0.0,0.0,93,0.00,CLR,OVC,0.04,WeatherDisplay:10.37,2013-05-17 02:22:00,
2013-05-16 19:23:00,52.8,50.8,29.96,West,260,0.0,0.0,93,0.00,CLR,OVC,0.05,WeatherDisplay:10.37,2013-05-17 02:23:00,
2013-05-16 19:24:00,52.8,50.8,29.96,West,260,0.0,0.0,93,0.01,RA,OVC,0.05,WeatherDisplay:10.37,2013-05-17 02:24:00,
2013-05-16 19:25:00,52.8,50.8,29.96,West,260,1.1,0.0,93,0.01,RA,OVC,0.05,WeatherDisplay:10.37,2013-05-17 02:25:00,
2013-05-16 19:26:00,52.7,50.7,29.96,West,260,0.0,0.0,93,0.01,RA,OVC,0.05,WeatherDisplay:10.37,2013-05-17 02:26:00,
2013-05-16 19:27:00,52.7,50.7,29.96,West,260,0.0,0.0,93,0.01,RA,OVC,0.05,WeatherDisplay:10.37,2013-05-17 02:27:00,
2013-05-16 19:28:00,52.7,50.7,29.96,West,260,0.0,0.0,93,0.01,RA,OVC,0.05,WeatherDisplay:10.37,2013-05-17 02:28:00,
2013-05-16 19:29:00,52.7,50.7,29.96,West,260,0.0,0.0,93,0.00,RA,OVC,0.05,WeatherDisplay:10.37,2013-05-17 02:29:00,
2013-05-16 19:30:00,52.6,50.9,29.96,West,260,0.0,0.0,94,0.01,RA,OVC,0.05,WeatherDisplay:10.37,2013-05-17 02:30:00,
2013-05-16 19:31:00,52.6,50.6,29.96,West,260,1.1,0.0,93,0.01,RA,OVC,0.05,WeatherDisplay:10.37,2013-05-17 02:31:00,
2013-05-16 19:32:00,52.6,50.6,29.96,West,264,1.1,0.0,93,0.01,RA,OVC,0.05,WeatherDisplay:10.37,2013-05-17 02:32:00,
2013-05-16 19:33:00,52.6,50.6,29.96,West,264,1.1,0.0,93,0.01,RA,OVC,0.05,WeatherDisplay:10.37,2013-05-17 02:33:00,
2013-05-16 19:34:00,52.6,50.6,29.96,West,260,0.0,1.0,93,0.01,RA,OVC,0.06,WeatherDisplay:10.37,2013-05-17 02:34:00,
2013-05-16 19:35:00,52.5,50.5,29.96,West,264,0.0,0.0,93,0.02,RA,OVC,0.06,WeatherDisplay:10.37,2013-05-17 02:35:00,
2013-05-16 19:36:00,52.5,50.5,29.96,West,264,0.0,0.0,93,0.02,RA,OVC,0.06,WeatherDisplay:10.37,2013-05-17 02:36:00,
2013-05-16 19:38:00,52.5,50.5,29.96,West,264,0.0,0.0,93,0.02,RA,OVC,0.06,WeatherDisplay:10.37,2013-05-17 02:38:00,
2013-05-16 19:39:00,52.4,50.7,29.96,West,264,0.0,0.0,94,0.02,RA,OVC,0.06,WeatherDisplay:10.37,2013-05-17 02:39:00,
2013-05-16 19:40:00,52.4,50.7,29.96,West,264,0.0,0.0,94,0.02,RA,OVC,0.06,WeatherDisplay:10.37,2013-05-17 02:40:00,
2013-05-16 19:41:00,52.4,50.7,29.96,West,264,0.0,0.0,94,0.02,RA,OVC,0.06,WeatherDisplay:10.37,2013-05-17 02:41:00,
2013-05-16 19:43:00,52.3,50.6,29.96,West,264,0.0,0.1,94,0.02,RA,OVC,0.06,WeatherDisplay:10.37,2013-05-17 02:43:00,
2013-05-16 19:45:00,52.2,50.5,29.96,West,264,1.1,0.0,94,0.02,,OVC,0.06,WeatherDisplay:10.37,2013-05-17 02:45:00,
2013-05-16 19:46:00,52.3,50.6,29.96,West,264,0.0,0.0,94,0.02,,OVC,0.06,WeatherDisplay:10.37,2013-05-17 02:46:00,
2013-05-16 19:48:00,52.2,50.5,29.96,West,262,3.5,3.5,94,0.02,CLR,OVC,0.06,WeatherDisplay:10.37,2013-05-17 02:48:00,
2013-05-16 19:50:00,52.1,50.4,29.96,West,263,0.0,0.0,94,0.02,CLR,OVC,0.06,WeatherDisplay:10.37,2013-05-17 02:50:00,
2013-05-16 19:51:00,52.1,50.4,29.96,West,263,0.0,0.0,94,0.02,CLR,OVC,0.06,WeatherDisplay:10.37,2013-05-17 02:51:00,
2013-05-16 19:53:00,52.0,50.3,29.96,West,262,0.0,0.0,94,0.02,CLR,OVC,0.06,WeatherDisplay:10.37,2013-05-17 02:53:00,
2013-05-16 19:55:00,51.9,50.5,29.96,West,262,0.0,0.0,95,0.03,RA,OVC,0.07,WeatherDisplay:10.37,2013-05-17 02:55:00,
2013-05-16 19:56:00,51.9,50.5,29.96,West,263,0.0,0.0,95,0.03,RA,OVC,0.07,WeatherDisplay:10.37,2013-05-17 02:56:00,
2013-05-16 19:57:00,51.9,50.5,29.97,West,262,0.0,0.0,95,0.03,RA,OVC,0.07,WeatherDisplay:10.37,2013-05-17 02:57:00,
2013-05-16 19:58:00,51.8,50.4,29.97,West,262,0.0,0.0,95,0.03,RA,OVC,0.07,WeatherDisplay:10.37,2013-05-17 02:58:00,
2013-05-16 20:00:00,51.8,50.4,29.97,West,263,0.0,0.0,95,0.03,RA,OVC,0.07,WeatherDisplay:10.37,2013-05-17 03:00:00,
2013-05-16 20:01:00,51.8,50.4,29.97,West,263,0.0,0.0,95,0.03,RA,OVC,0.07,WeatherDisplay:10.37,2013-05-17 03:01:00,
2013-05-16 20:02:00,51.8,50.4,29.97,West,263,2.3,2.3,95,0.03,RA,OVC,0.07,WeatherDisplay:10.37,2013-05-17 03:02:00,
2013-05-16 20:03:00,51.7,50.3,29.97,West,263,1.1,1.1,95,0.03,RA,OVC,0.07,WeatherDisplay:10.37,2013-05-17 03:03:00,
2013-05-16 20:06:00,51.6,50.2,29.97,West,263,0.0,0.0,95,0.03,,OVC,0.07,WeatherDisplay:10.37,2013-05-17 03:06:00,
2013-05-16 20:07:00,51.6,50.2,29.97,West,262,0.0,0.0,95,0.03,CLR,OVC,0.07,WeatherDisplay:10.37,2013-05-17 03:07:00,
2013-05-16 20:09:00,51.5,50.1,29.97,West,263,1.1,0.0,95,0.03,CLR,OVC,0.07,WeatherDisplay:10.37,2013-05-17 03:09:00,
2013-05-16 20:11:00,51.5,50.4,29.97,West,263,0.0,0.0,96,0.03,CLR,OVC,0.07,WeatherDisplay:10.37,2013-05-17 03:11:00,
2013-05-16 20:12:00,51.5,50.4,29.97,West,262,3.5,3.5,96,0.03,CLR,OVC,0.07,WeatherDisplay:10.37,2013-05-17 03:12:00,
2013-05-16 20:14:00,51.4,50.3,29.97,West,262,1.1,1.1,96,0.03,CLR,OVC,0.07,WeatherDisplay:10.37,2013-05-17 03:14:00,
2013-05-16 20:16:00,51.4,50.3,29.97,West,262,0.0,0.0,96,0.03,CLR,OVC,0.07,WeatherDisplay:10.37,2013-05-17 03:16:00,
2013-05-16 20:17:00,51.4,50.3,29.97,West,262,0.0,0.0,96,0.03,CLR,OVC,0.07,WeatherDisplay:10.37,2013-05-17 03:17:00,
2013-05-16 20:19:00,51.3,50.2,29.97,West,262,0.0,0.0,96,0.03,CLR,OVC,0.07,WeatherDisplay:10.37,2013-05-17 03:19:00,
2013-05-16 20:21:00,51.3,50.2,29.97,West,262,0.0,0.0,96,0.04,RA,OVC,0.08,WeatherDisplay:10.37,2013-05-17 03:21:00,
2013-05-16 20:22:00,51.3,50.2,29.97,West,262,0.0,0.0,96,0.04,RA,OVC,0.08,WeatherDisplay:10.37,2013-05-17 03:22:00,
2013-05-16 20:24:00,51.3,50.2,29.97,West,262,0.0,0.0,96,0.03,RA,OVC,0.08,WeatherDisplay:10.37,2013-05-17 03:24:00,
2013-05-16 20:26:00,51.2,50.1,29.97,West,262,0.0,0.0,96,0.03,RA,OVC,0.08,WeatherDisplay:10.37,2013-05-17 03:26:00,
2013-05-16 20:27:00,51.2,50.1,29.97,West,263,0.0,0.0,96,0.03,RA,OVC,0.08,WeatherDisplay:10.37,2013-05-17 03:27:00,
2013-05-16 20:29:00,51.2,50.1,29.97,West,262,0.0,0.0,96,0.00,RA,OVC,0.08,WeatherDisplay:10.37,2013-05-17 03:29:00,
2013-05-16 20:30:00,51.2,50.1,29.97,West,262,0.0,0.0,96,0.03,RA,OVC,0.08,WeatherDisplay:10.37,2013-05-17 03:30:00,
2013-05-16 20:31:00,51.2,50.1,29.97,West,262,1.1,1.1,96,0.03,,OVC,0.08,WeatherDisplay:10.37,2013-05-17 03:31:00,
2013-05-16 20:32:00,51.2,50.1,29.97,West,262,1.1,0.0,96,0.03,CLR,OVC,0.08,WeatherDisplay:10.37,2013-05-17 03:32:00,
2013-05-16 20:33:00,51.2,50.1,29.97,West,262,1.1,0.0,96,0.03,CLR,OVC,0.08,WeatherDisplay:10.37,2013-05-17 03:33:00,
2013-05-16 20:35:00,51.2,50.1,29.97,West,262,0.0,0.0,96,0.02,CLR,OVC,0.08,WeatherDisplay:10.37,2013-05-17 03:35:00,
2013-05-16 20:36:00,51.1,50.3,29.97,West,262,0.0,0.0,97,0.02,CLR,OVC,0.08,WeatherDisplay:10.37,2013-05-17 03:36:00,
2013-05-16 20:37:00,51.1,50.3,29.97,West,262,0.0,0.0,97,0.02,CLR,OVC,0.08,WeatherDisplay:10.37,2013-05-17 03:37:00,
2013-05-16 20:38:00,51.1,50.3,29.97,West,262,0.0,0.0,97,0.02,CLR,OVC,0.08,WeatherDisplay:10.37,2013-05-17 03:38:00,
2013-05-16 20:40:00,51.0,50.2,29.97,West,262,0.0,0.0,97,0.02,CLR,OVC,0.08,WeatherDisplay:10.37,2013-05-17 03:40:00,
2013-05-16 20:42:00,51.0,50.2,29.97,West,262,0.0,0.0,97,0.02,CLR,OVC,0.08,WeatherDisplay:10.37,2013-05-17 03:42:00,
2013-05-16 20:43:00,51.0,50.2,29.98,West,262,0.0,0.0,97,0.02,CLR,OVC,0.08,WeatherDisplay:10.37,2013-05-17 03:43:00,
2013-05-16 20:45:00,51.0,50.2,29.98,West,262,1.1,0.0,97,0.02,CLR,OVC,0.08,WeatherDisplay:10.37,2013-05-17 03:45:00,
2013-05-16 20:47:00,51.0,50.2,29.97,West,262,0.0,0.0,97,0.02,CLR,OVC,0.08,WeatherDisplay:10.37,2013-05-17 03:47:00,
2013-05-16 20:48:00,50.9,50.1,29.97,West,262,0.0,0.0,97,0.02,CLR,OVC,0.08,WeatherDisplay:10.37,2013-05-17 03:48:00,
2013-05-16 20:50:00,50.9,50.1,29.98,West,262,0.0,0.0,97,0.02,CLR,OVC,0.08,WeatherDisplay:10.37,2013-05-17 03:50:00,
2013-05-16 20:51:00,50.9,50.1,29.98,West,262,0.0,0.0,97,0.02,CLR,OVC,0.08,WeatherDisplay:10.37,2013-05-17 03:51:00,
2013-05-16 20:52:00,50.9,50.1,29.98,West,262,1.1,1.1,97,0.02,CLR,OVC,0.08,WeatherDisplay:10.37,2013-05-17 03:52:00,
2013-05-16 20:53:00,50.9,50.1,29.98,West,262,1.1,0.0,97,0.02,CLR,OVC,0.08,WeatherDisplay:10.37,2013-05-17 03:53:00,
2013-05-16 20:54:00,50.8,50.0,29.98,West,262,0.0,0.0,97,0.02,CLR,OVC,0.08,WeatherDisplay:10.37,2013-05-17 03:54:00,
2013-05-16 20:55:00,50.8,50.0,29.98,West,262,1.1,0.0,97,0.01,CLR,OVC,0.08,WeatherDisplay:10.37,2013-05-17 03:55:00,
2013-05-16 20:57:00,50.8,50.0,29.98,West,262,0.0,0.0,97,0.01,CLR,OVC,0.08,WeatherDisplay:10.37,2013-05-17 03:57:00,
2013-05-16 20:58:00,50.8,50.0,29.98,West,262,0.0,0.0,97,0.01,CLR,OVC,0.08,WeatherDisplay:10.37,2013-05-17 03:58:00,
2013-05-16 20:59:00,50.8,50.0,29.98,West,262,0.0,0.0,97,0.01,CLR,OVC,0.08,WeatherDisplay:10.37,2013-05-17 03:59:00,
2013-05-16 21:00:00,50.8,50.0,29.98,West,262,0.0,0.0,97,0.01,CLR,OVC,0.08,WeatherDisplay:10.37,2013-05-17 04:00:00,
2013-05-16 21:01:00,50.8,50.0,29.98,West,262,0.0,0.0,97,0.01,CLR,OVC,0.08,WeatherDisplay:10.37,2013-05-17 04:01:00,
2013-05-16 21:06:00,50.8,50.0,29.98,West,262,0.0,0.0,97,0.01,CLR,OVC,0.08,WeatherDisplay:10.37,2013-05-17 04:06:00,
2013-05-16 21:11:00,50.7,49.9,29.98,West,262,0.0,0.0,97,0.01,CLR,OVC,0.08,WeatherDisplay:10.37,2013-05-17 04:11:00,
2013-05-16 21:12:00,50.7,50.2,29.99,West,262,0.0,0.0,98,0.01,CLR,OVC,0.08,WeatherDisplay:10.37,2013-05-17 04:12:00,
2013-05-16 21:16:00,50.7,50.2,29.99,West,262,0.0,0.0,98,0.01,CLR,OVC,0.08,WeatherDisplay:10.37,2013-05-17 04:16:00,
2013-05-16 21:17:00,50.7,50.2,29.99,West,262,0.0,0.0,98,0.01,CLR,OVC,0.08,WeatherDisplay:10.37,2013-05-17 04:17:00,
2013-05-16 21:21:00,50.7,50.2,29.99,West,262,0.0,0.0,98,0.00,CLR,OVC,0.08,WeatherDisplay:10.37,2013-05-17 04:21:00,
2013-05-16 21:22:00,50.7,50.2,29.99,West,262,0.0,0.0,98,0.00,CLR,OVC,0.08,WeatherDisplay:10.37,2013-05-17 04:22:00,
2013-05-16 21:26:00,50.7,50.2,29.99,West,262,0.0,0.0,98,0.00,CLR,OVC,0.08,WeatherDisplay:10.37,2013-05-17 04:26:00,
2013-05-16 21:27:00,50.7,50.2,29.99,West,262,0.0,0.0,98,0.00,CLR,OVC,0.08,WeatherDisplay:10.37,2013-05-17 04:27:00,
2013-05-16 21:31:00,50.6,50.1,29.99,West,262,0.0,0.0,98,0.00,CLR,OVC,0.08,WeatherDisplay:10.37,2013-05-17 04:31:00,
2013-05-16 21:32:00,50.6,50.1,29.99,West,262,0.0,0.0,98,0.00,CLR,OVC,0.08,WeatherDisplay:10.37,2013-05-17 04:32:00,
2013-05-16 21:36:00,50.5,50.0,29.99,West,262,1.1,0.0,98,0.00,CLR,OVC,0.08,WeatherDisplay:10.37,2013-05-17 04:36:00,
2013-05-16 21:37:00,50.6,50.1,29.99,West,262,0.0,0.0,98,0.00,CLR,OVC,0.08,WeatherDisplay:10.37,2013-05-17 04:37:00,
2013-05-16 21:38:00,50.5,50.0,29.99,West,262,0.0,0.0,98,0.00,CLR,OVC,0.08,WeatherDisplay:10.37,2013-05-17 04:38:00,
2013-05-16 21:41:00,50.6,50.1,29.99,West,262,0.0,0.0,98,0.00,CLR,OVC,0.08,WeatherDisplay:10.37,2013-05-17 04:41:00,
2013-05-16 21:42:00,50.5,50.0,29.99,West,262,0.0,0.0,98,0.00,CLR,OVC,0.08,WeatherDisplay:10.37,2013-05-17 04:42:00,
2013-05-16 21:43:00,50.5,50.0,29.99,West,262,0.0,0.0,98,0.00,CLR,OVC,0.08,WeatherDisplay:10.37,2013-05-17 04:43:00,
2013-05-16 21:46:00,50.6,50.1,29.99,West,262,0.0,0.0,98,0.00,CLR,OVC,0.08,WeatherDisplay:10.37,2013-05-17 04:46:00,
2013-05-16 21:47:00,50.5,50.0,29.99,West,262,0.0,0.0,98,0.00,CLR,OVC,0.08,WeatherDisplay:10.37,2013-05-17 04:47:00,
2013-05-16 21:48:00,50.6,50.1,29.99,West,262,0.0,0.0,98,0.00,CLR,OVC,0.08,WeatherDisplay:10.37,2013-05-17 04:48:00,
2013-05-16 21:51:00,50.5,49.7,29.99,West,263,0.0,0.0,97,0.00,CLR,OVC,0.08,WeatherDisplay:10.37,2013-05-17 04:51:00,
2013-05-16 21:52:00,50.6,49.8,29.99,West,263,0.0,0.0,97,0.00,CLR,OVC,0.08,WeatherDisplay:10.37,2013-05-17 04:52:00,
2013-05-16 21:53:00,50.5,49.7,29.99,West,263,0.0,0.0,97,0.00,CLR,OVC,0.08,WeatherDisplay:10.37,2013-05-17 04:53:00,
2013-05-16 21:56:00,50.5,49.7,29.99,West,263,0.0,0.0,97,0.00,CLR,OVC,0.08,WeatherDisplay:10.37,2013-05-17 04:56:00,
2013-05-16 21:57:00,50.5,49.7,29.99,West,263,0.0,0.0,97,0.00,CLR,OVC,0.08,WeatherDisplay:10.37,2013-05-17 04:57:00,
2013-05-16 21:58:00,50.5,49.7,29.99,West,263,0.0,0.0,97,0.00,CLR,OVC,0.08,WeatherDisplay:10.37,2013-05-17 04:58:00,
2013-05-16 22:01:00,50.5,49.7,29.99,West,263,0.0,0.0,97,0.00,CLR,OVC,0.08,WeatherDisplay:10.37,2013-05-17 05:01:00,
2013-05-16 22:02:00,50.4,49.6,29.99,West,263,0.0,0.0,97,0.00,CLR,OVC,0.08,WeatherDisplay:10.37,2013-05-17 05:02:00,
2013-05-16 22:03:00,50.4,49.6,29.99,West,263,0.0,0.0,97,0.00,CLR,OVC,0.08,WeatherDisplay:10.37,2013-05-17 05:03:00,
2013-05-16 22:07:00,50.4,49.6,29.99,West,263,0.0,0.0,97,0.00,CLR,OVC,0.08,WeatherDisplay:10.37,2013-05-17 05:07:00,
2013-05-16 22:08:00,50.4,49.6,29.99,West,263,0.0,0.0,97,0.00,CLR,OVC,0.08,WeatherDisplay:10.37,2013-05-17 05:08:00,
2013-05-16 22:09:00,50.4,49.6,29.99,West,263,0.0,0.0,97,0.00,CLR,OVC,0.08,WeatherDisplay:10.37,2013-05-17 05:09:00,
2013-05-16 22:12:00,50.4,49.9,29.99,West,263,0.0,0.0,98,0.00,CLR,OVC,0.08,WeatherDisplay:10.37,2013-05-17 05:12:00,
2013-05-16 22:13:00,50.4,49.9,29.99,West,263,0.0,0.0,98,0.00,CLR,OVC,0.08,WeatherDisplay:10.37,2013-05-17 05:13:00,
2013-05-16 22:14:00,50.4,49.9,29.99,West,263,0.0,0.0,98,0.00,CLR,OVC,0.08,WeatherDisplay:10.37,2013-05-17 05:14:00,
2013-05-16 22:17:00,50.4,49.9,29.99,West,263,0.0,0.0,98,0.00,CLR,OVC,0.08,WeatherDisplay:10.37,2013-05-17 05:17:00,
2013-05-16 22:18:00,50.4,49.9,29.99,West,263,0.0,0.0,98,0.00,CLR,OVC,0.08,WeatherDisplay:10.37,2013-05-17 05:18:00,
2013-05-16 22:19:00,50.4,49.9,29.99,West,263,0.0,0.0,98,0.00,CLR,OVC,0.08,WeatherDisplay:10.37,2013-05-17 05:19:00,
2013-05-16 22:22:00,50.4,49.9,30.00,West,263,0.0,0.0,98,0.00,CLR,OVC,0.08,WeatherDisplay:10.37,2013-05-17 05:22:00,
2013-05-16 22:24:00,50.4,49.9,30.00,West,263,0.0,0.0,98,0.00,CLR,OVC,0.08,WeatherDisplay:10.37,2013-05-17 05:24:00,
2013-05-16 22:25:00,50.3,49.8,30.00,West,263,0.0,0.0,98,0.00,CLR,OVC,0.08,WeatherDisplay:10.37,2013-05-17 05:25:00,
2013-05-16 22:27:00,50.3,49.8,29.99,West,263,0.0,0.0,98,0.00,CLR,OVC,0.08,WeatherDisplay:10.37,2013-05-17 05:27:00,
2013-05-16 22:29:00,50.3,49.8,29.99,West,263,0.0,0.0,98,0.00,CLR,OVC,0.08,WeatherDisplay:10.37,2013-05-17 05:29:00,
2013-05-16 22:30:00,50.3,49.8,29.99,West,263,0.0,0.0,98,0.00,CLR,OVC,0.08,WeatherDisplay:10.37,2013-05-17 05:30:00,
2013-05-16 22:32:00,50.3,49.8,29.99,West,263,0.0,0.0,98,0.00,CLR,OVC,0.08,WeatherDisplay:10.37,2013-05-17 05:32:00,
2013-05-16 22:34:00,50.3,49.5,29.99,West,263,0.0,0.0,97,0.00,CLR,OVC,0.08,WeatherDisplay:10.37,2013-05-17 05:34:00,
2013-05-16 22:35:00,50.3,49.5,29.99,West,263,0.0,0.0,97,0.00,CLR,OVC,0.08,WeatherDisplay:10.37,2013-05-17 05:35:00,
2013-05-16 22:38:00,50.3,49.5,30.00,West,263,0.0,0.0,97,0.00,CLR,OVC,0.08,WeatherDisplay:10.37,2013-05-17 05:38:00,
2013-05-16 22:39:00,50.3,49.5,30.00,West,263,0.0,0.0,97,0.00,CLR,OVC,0.08,WeatherDisplay:10.37,2013-05-17 05:39:00,
2013-05-16 22:40:00,50.2,49.4,30.00,West,263,0.0,0.0,97,0.00,CLR,OVC,0.08,WeatherDisplay:10.37,2013-05-17 05:40:00,
2013-05-16 22:43:00,50.3,49.5,29.99,West,263,0.0,0.0,97,0.00,CLR,OVC,0.08,WeatherDisplay:10.37,2013-05-17 05:43:00,
2013-05-16 22:44:00,50.2,49.4,29.99,West,263,0.0,0.0,97,0.00,CLR,OVC,0.08,WeatherDisplay:10.37,2013-05-17 05:44:00,
2013-05-16 22:45:00,50.3,49.5,29.99,West,263,0.0,0.0,97,0.00,CLR,OVC,0.08,WeatherDisplay:10.37,2013-05-17 05:45:00,
2013-05-16 22:48:00,50.3,49.5,29.99,West,263,0.0,0.0,97,0.00,CLR,OVC,0.08,WeatherDisplay:10.37,2013-05-17 05:48:00,
2013-05-16 22:49:00,50.3,49.5,29.99,West,263,0.0,0.0,97,0.00,CLR,OVC,0.08,WeatherDisplay:10.37,2013-05-17 05:49:00,
2013-05-16 22:50:00,50.2,49.4,29.99,West,263,0.0,0.0,97,0.00,CLR,OVC,0.08,WeatherDisplay:10.37,2013-05-17 05:50:00,
2013-05-16 22:51:00,50.2,49.4,30.00,West,263,0.0,0.0,97,0.00,CLR,OVC,0.08,WeatherDisplay:10.37,2013-05-17 05:51:00,
2013-05-16 22:53:00,50.2,49.4,29.99,West,263,0.0,0.0,97,0.00,CLR,OVC,0.08,WeatherDisplay:10.37,2013-05-17 05:53:00,
2013-05-16 22:55:00,50.2,49.4,29.99,West,263,0.0,0.0,97,0.00,CLR,OVC,0.08,WeatherDisplay:10.37,2013-05-17 05:55:00,
2013-05-16 22:56:00,50.2,49.4,29.99,West,263,0.0,0.0,97,0.00,CLR,OVC,0.08,WeatherDisplay:10.37,2013-05-17 05:56:00,
2013-05-16 22:58:00,50.2,49.4,29.99,West,263,0.0,0.0,97,0.00,CLR,OVC,0.08,WeatherDisplay:10.37,2013-05-17 05:58:00,
2013-05-16 23:00:00,50.2,49.4,29.99,West,263,0.0,0.0,97,0.00,CLR,OVC,0.08,WeatherDisplay:10.37,2013-05-17 06:00:00,
2013-05-16 23:01:00,50.2,49.4,29.99,West,263,0.0,0.0,97,0.00,CLR,OVC,0.08,WeatherDisplay:10.37,2013-05-17 06:01:00,
2013-05-16 23:03:00,50.2,49.4,30.00,West,263,0.0,0.0,97,0.00,CLR,OVC,0.08,WeatherDisplay:10.37,2013-05-17 06:03:00,
2013-05-16 23:05:00,50.2,49.4,29.99,West,263,0.0,0.0,97,0.00,CLR,OVC,0.08,WeatherDisplay:10.37,2013-05-17 06:05:00,
2013-05-16 23:06:00,50.2,49.4,30.00,West,263,0.0,0.0,97,0.00,CLR,OVC,0.08,WeatherDisplay:10.37,2013-05-17 06:06:00,
2013-05-16 23:08:00,50.2,49.4,30.00,West,263,0.0,0.0,97,0.00,CLR,OVC,0.08,WeatherDisplay:10.37,2013-05-17 06:08:00,
2013-05-16 23:10:00,50.2,49.4,30.00,West,263,0.0,0.0,97,0.00,CLR,OVC,0.08,WeatherDisplay:10.37,2013-05-17 06:10:00,
2013-05-16 23:11:00,50.2,49.4,30.00,West,263,0.0,0.0,97,0.00,CLR,OVC,0.08,WeatherDisplay:10.37,2013-05-17 06:11:00,
2013-05-16 23:13:00,50.3,49.8,30.00,West,263,0.0,0.0,98,0.00,CLR,OVC,0.08,WeatherDisplay:10.37,2013-05-17 06:13:00,
2013-05-16 23:15:00,50.2,49.7,30.00,West,263,0.0,0.0,98,0.00,CLR,OVC,0.08,WeatherDisplay:10.37,2013-05-17 06:15:00,
2013-05-16 23:16:00,50.2,49.7,30.00,West,263,0.0,0.0,98,0.00,CLR,OVC,0.08,WeatherDisplay:10.37,2013-05-17 06:16:00,
2013-05-16 23:18:00,50.2,49.7,30.00,West,263,0.0,0.0,98,0.00,CLR,OVC,0.08,WeatherDisplay:10.37,2013-05-17 06:18:00,
2013-05-16 23:20:00,50.3,49.8,29.99,West,263,0.0,0.0,98,0.00,CLR,OVC,0.08,WeatherDisplay:10.37,2013-05-17 06:20:00,
2013-05-16 23:21:00,50.3,49.8,29.99,West,263,0.0,0.0,98,0.00,CLR,OVC,0.08,WeatherDisplay:10.37,2013-05-17 06:21:00,
2013-05-16 23:24:00,50.2,49.7,30.00,West,263,0.0,0.0,98,0.00,CLR,OVC,0.08,WeatherDisplay:10.37,2013-05-17 06:24:00,
2013-05-16 23:25:00,50.2,49.7,30.00,West,263,0.0,0.0,98,0.00,CLR,OVC,0.08,WeatherDisplay:10.37,2013-05-17 06:25:00,
2013-05-16 23:26:00,50.2,49.7,30.00,West,263,0.0,0.0,98,0.00,CLR,OVC,0.08,WeatherDisplay:10.37,2013-05-17 06:26:00,
2013-05-16 23:27:00,50.2,49.7,30.00,West,263,0.0,0.0,98,0.00,CLR,OVC,0.08,WeatherDisplay:10.37,2013-05-17 06:27:00,
2013-05-16 23:29:00,50.2,49.7,30.00,West,263,0.0,0.0,98,0.00,CLR,OVC,0.08,WeatherDisplay:10.37,2013-05-17 06:29:00,
2013-05-16 23:31:00,50.2,49.7,30.00,West,263,0.0,0.0,98,0.00,CLR,OVC,0.08,WeatherDisplay:10.37,2013-05-17 06:31:00,
2013-05-16 23:32:00,50.2,49.7,30.00,West,263,2.0,2.0,98,0.00,CLR,OVC,0.08,WeatherDisplay:10.37,2013-05-17 06:32:00,
2013-05-16 23:34:00,50.2,49.7,30.00,West,263,1.1,0.0,98,0.00,CLR,OVC,0.08,WeatherDisplay:10.37,2013-05-17 06:34:00,
2013-05-16 23:36:00,50.2,49.7,30.00,West,263,1.1,0.0,98,0.00,CLR,OVC,0.08,WeatherDisplay:10.37,2013-05-17 06:36:00,
2013-05-16 23:37:00,50.2,49.7,30.00,West,263,0.0,0.0,98,0.00,CLR,OVC,0.08,WeatherDisplay:10.37,2013-05-17 06:37:00,
2013-05-16 23:39:00,50.2,49.7,30.00,West,263,0.0,1.0,98,0.00,CLR,OVC,0.08,WeatherDisplay:10.37,2013-05-17 06:39:00,
2013-05-16 23:41:00,50.3,49.8,30.00,West,263,0.0,0.0,98,0.00,CLR,OVC,0.08,WeatherDisplay:10.37,2013-05-17 06:41:00,
2013-05-16 23:42:00,50.3,49.8,30.00,West,263,0.0,0.0,98,0.00,CLR,OVC,0.08,WeatherDisplay:10.37,2013-05-17 06:42:00,
2013-05-16 23:44:00,50.3,49.8,30.00,West,263,1.1,1.1,98,0.00,CLR,OVC,0.08,WeatherDisplay:10.37,2013-05-17 06:44:00,
2013-05-16 23:46:00,50.3,49.8,30.00,West,263,0.0,0.0,98,0.00,CLR,OVC,0.08,WeatherDisplay:10.37,2013-05-17 06:46:00,
2013-05-16 23:47:00,50.3,49.8,30.00,West,263,0.0,0.0,98,0.00,CLR,OVC,0.08,WeatherDisplay:10.37,2013-05-17 06:47:00,
2013-05-16 23:49:00,50.3,49.8,30.00,West,263,0.0,0.0,98,0.00,CLR,OVC,0.08,WeatherDisplay:10.37,2013-05-17 06:49:00,
2013-05-16 23:51:00,50.4,49.9,30.00,West,263,0.0,0.0,98,0.00,CLR,OVC,0.08,WeatherDisplay:10.37,2013-05-17 06:51:00,
2013-05-16 23:52:00,50.4,49.9,30.00,West,263,0.0,0.0,98,0.00,CLR,OVC,0.08,WeatherDisplay:10.37,2013-05-17 06:52:00,
2013-05-16 23:54:00,50.4,49.9,30.00,West,263,0.0,0.0,98,0.00,CLR,OVC,0.08,WeatherDisplay:10.37,2013-05-17 06:54:00,
2013-05-16 23:57:00,50.4,49.9,30.00,West,263,0.0,0.0,98,0.00,CLR,OVC,0.08,WeatherDisplay:10.37,2013-05-17 06:57:00,
2013-05-16 23:58:00,50.4,49.9,30.00,West,263,0.0,0.0,98,0.00,CLR,OVC,0.08,WeatherDisplay:10.37,2013-05-17 06:58:00,
2013-05-16 23:59:00,50.4,49.9,30.00,West,263,0.0,0.0,98,0.00,RA,OVC,0.00,WeatherDisplay:10.37,2013-05-17 06:59:00,